M I D A S
Marine Information and Data Acquisition System
Tripno 450 of the Zeeleeuw from 2003-03-21 07:10:06 to 2003-03-21 13:16:12
Back to CruiseResearch ActivitiesStationsMapUnderway DataData graphs

EquipmentUnitsComment
TimeDGPSUTC
LatitudeDGPSDM.mWGS84
LongitudeDGPSDM.mWGS84
TemperatureSBE03/SBE38deg celciusITS90
ConductivitySBE21S/mITS90
SalinitySBE21 Practical Salinity Units
ChlorophylAChelsea fluorimeterg/lCalibrated in Aceton
Missing or incorrect values are displayed as -999
Sea surface data collected by the RV Zeeleeuw from 2003-03-21 07:10:06 to 2003-03-21 13:16:12
                                                                                    Next 1000 lines
Time Latitude Longitude Temperature Conductivity Salinity ChlorophylA
2003-03-21 07:10:16 51°13.599 2°56.103 6.886064 2.848185 27.383343 7.039332
2003-03-21 07:10:22 51°13.598 2°56.103 6.8581 2.861339 27.532879 6.904494
2003-03-21 07:10:27 51°13.598 2°56.103 6.866175 2.857551 27.506187 7.106751
2003-03-21 07:10:32 51°13.598 2°56.103 6.846428 2.860708 27.549142 7.14046
2003-03-21 07:10:36 51°13.598 2°56.103 6.872674 2.860287 27.552785 7.14046
2003-03-21 07:10:41 51°13.598 2°56.102 6.871148 2.863759 27.593046 7.207879
2003-03-21 07:10:46 51°13.598 2°56.102 6.871148 2.863759 27.593046 7.207879
2003-03-21 07:10:52 51°13.597 2°56.103 6.874791 2.868284 27.645861 7.511264
2003-03-21 07:10:56 51°13.598 2°56.103 6.873117 2.86639 27.631841 7.848358
2003-03-21 07:11:02 51°13.598 2°56.104 6.899304 2.86839 27.66124 8.118033
2003-03-21 07:11:07 51°13.598 2°56.106 6.899058 2.860708 27.583657 8.185452
2003-03-21 07:11:12 51°13.599 2°56.107 6.884538 2.852185 27.491058 8.219161
2003-03-21 07:11:16 51°13.6 2°56.108 6.884538 2.852185 27.491058 8.219161
2003-03-21 07:11:22 51°13.599 2°56.108 6.886064 2.842188 27.379507 8.28658
2003-03-21 07:11:27 51°13.6 2°56.108 6.886606 2.83577 27.311377 8.488836
2003-03-21 07:11:32 51°13.6 2°56.109 6.878976 2.827036 27.213363 8.522546
2003-03-21 07:11:37 51°13.6 2°56.108 6.896646 2.820723 27.140417 8.691093
2003-03-21 07:11:42 51°13.6 2°56.106 6.891331 2.809886 27.026226 8.691093
2003-03-21 07:11:47 51°13.601 2°56.104 6.891331 2.809886 27.026226 8.691093
2003-03-21 07:11:50 51°13.601 2°56.103 6.913623 2.799049 26.912753 8.691093
2003-03-21 07:11:56 51°13.602 2°56.098 6.92848 2.798102 26.904707 8.691093
2003-03-21 07:12:02 51°13.604 2°56.091 6.931284 2.796524 26.891294 8.657383
2003-03-21 07:12:08 51°13.605 2°56.084 6.945104 2.791053 26.830063 8.724802
2003-03-21 07:12:12 51°13.607 2°56.079 6.926267 2.785792 26.773062 8.724802
2003-03-21 07:12:16 51°13.608 2°56.073 6.926267 2.785792 26.773062 8.724802
2003-03-21 07:12:22 51°13.61 2°56.063 6.932317 2.780321 26.711888 8.82593
2003-03-21 07:12:27 51°13.611 2°56.055 6.924496 2.783477 26.738064 8.623674
2003-03-21 07:12:32 51°13.613 2°56.046 6.912787 2.785371 26.751535 8.657383
2003-03-21 07:12:37 51°13.614 2°56.036 6.917707 2.778953 26.677122 9.837212
2003-03-21 07:12:42 51°13.616 2°56.027 6.930841 2.791789 26.810219 11.354136
2003-03-21 07:12:48 51°13.618 2°56.015 6.930841 2.791789 26.810219 11.354136
2003-03-21 07:12:52 51°13.62 2°56.007 6.929366 2.794314 26.836927 11.792358
2003-03-21 07:12:57 51°13.622 2°55.997 6.927841 2.792525 26.820639 12.028324
2003-03-21 07:13:02 51°13.624 2°55.988 6.921298 2.785476 26.748055 12.297999
2003-03-21 07:13:08 51°13.625 2°55.976 6.92425 2.78979 26.798277 12.904768
2003-03-21 07:13:12 51°13.627 2°55.967 6.91569 2.77222 26.61183 13.073315
2003-03-21 07:13:18 51°13.63 2°55.954 6.91569 2.77222 26.61183 13.073315
2003-03-21 07:13:22 51°13.632 2°55.945 6.920806 2.753072 26.40695 13.241862
2003-03-21 07:13:27 51°13.636 2°55.934 6.905849 2.736977 26.23642 13.309281
2003-03-21 07:13:32 51°13.64 2°55.923 6.907374 2.727404 26.137369 13.140734
2003-03-21 07:13:36 51°13.643 2°55.915 6.880305 2.721513 26.077169 12.871059
2003-03-21 07:13:42 51°13.647 2°55.902 6.891577 2.716148 26.023163 12.601383
2003-03-21 07:13:48 51°13.651 2°55.89 6.891577 2.716148 26.023163 12.601383
2003-03-21 07:13:52 51°13.654 2°55.881 6.878828 2.707732 25.934464 12.500255
2003-03-21 07:13:57 51°13.657 2°55.871 6.878287 2.708258 25.941279 12.264289
2003-03-21 07:14:02 51°13.661 2°55.861 6.870508 2.704787 25.907242 11.927195
2003-03-21 07:14:08 51°13.665 2°55.848 6.86066 2.708258 25.952102 11.522683
2003-03-21 07:14:12 51°13.667 2°55.84 6.85874 2.711309 25.990645 11.387845
2003-03-21 07:14:17 51°13.67 2°55.83 6.85874 2.711309 25.990645 11.387845
2003-03-21 07:14:22 51°13.673 2°55.82 6.85091 2.721408 26.101028 11.050751
2003-03-21 07:14:28 51°13.676 2°55.808 6.843275 2.72793 26.176301 11.050751
2003-03-21 07:14:32 51°13.678 2°55.8 6.863566 2.729718 26.199691 11.017042
2003-03-21 07:14:37 51°13.68 2°55.79 6.85549 2.740764 26.320922 10.949623
2003-03-21 07:14:42 51°13.682 2°55.779 6.857755 2.740344 26.321001 10.882204
2003-03-21 07:14:47 51°13.684 2°55.769 6.857755 2.740344 26.321001 10.882204
2003-03-21 07:14:52 51°13.687 2°55.759 6.841896 2.734137 26.259912 10.781076
2003-03-21 07:14:57 51°13.688 2°55.751 6.843472 2.738555 26.311795 11.050751
2003-03-21 07:15:02 51°13.688 2°55.743 6.83569 2.736662 26.291771 11.08446
2003-03-21 07:15:07 51°13.689 2°55.737 6.829384 2.732349 26.246815 11.08446
2003-03-21 07:15:11 51°13.689 2°55.732 6.837857 2.720146 26.119131 11.11817
2003-03-21 07:15:16 51°13.691 2°55.727 6.837857 2.720146 26.119131 11.11817
2003-03-21 07:15:21 51°13.692 2°55.722 6.83165 2.722776 26.149492 11.185589
2003-03-21 07:15:27 51°13.692 2°55.718 6.84495 2.732454 26.255027 11.050751
2003-03-21 07:15:32 51°13.693 2°55.714 6.839138 2.736872 26.304343 11.11817
2003-03-21 07:15:36 51°13.693 2°55.713 6.840616 2.735505 26.293757 11.320426
2003-03-21 07:15:42 51°13.693 2°55.712 6.848349 2.731297 26.2486 11.556392
2003-03-21 07:15:46 51°13.693 2°55.712 6.848349 2.731297 26.2486 11.556392
2003-03-21 07:15:51 51°13.693 2°55.712 6.843916 2.724985 26.184429 11.893486
2003-03-21 07:15:56 51°13.693 2°55.713 6.850023 2.720567 26.138358 11.893486
2003-03-21 07:16:02 51°13.694 2°55.715 6.866717 2.715307 26.081474 12.23058
2003-03-21 07:16:07 51°13.695 2°55.716 6.880502 2.708154 26.005246 12.331708
2003-03-21 07:16:12 51°13.696 2°55.718 6.910819 2.704788 25.967769 12.163161
2003-03-21 07:16:17 51°13.698 2°55.72 6.910819 2.704788 25.967769 12.163161
2003-03-21 07:16:22 51°13.7 2°55.721 6.921692 2.696793 25.881434 12.365418
2003-03-21 07:16:27 51°13.703 2°55.722 6.92179 2.682382 25.72808 12.736221
2003-03-21 07:16:32 51°13.706 2°55.722 6.930153 2.681646 25.717783 12.938477
2003-03-21 07:16:37 51°13.708 2°55.723 6.945744 2.66103 25.494165 13.309281
2003-03-21 07:16:42 51°13.712 2°55.723 6.943973 2.64662 25.3337 13.309281
2003-03-21 07:16:46 51°13.714 2°55.722 6.943973 2.64662 25.3337 13.309281
2003-03-21 07:16:51 51°13.718 2°55.721 6.941564 2.626426 25.106492 13.612665
2003-03-21 07:16:56 51°13.722 2°55.72 6.964723 2.617065 25.000802 13.848631
2003-03-21 07:17:02 51°13.726 2°55.718 6.951546 2.608652 24.906375 13.781212
2003-03-21 07:17:06 51°13.729 2°55.716 12.187802 2.590563 24.709402 14.084597
2003-03-21 07:17:12 51°13.734 2°55.712 9.579547 2.58888 24.686926 14.185725
2003-03-21 07:17:17 51°13.739 2°55.708 9.579547 2.58888 24.686926 14.185725
2003-03-21 07:17:21 51°13.742 2°55.705 9.386235 2.573001 24.517027 14.253144
2003-03-21 07:17:26 51°13.748 2°55.7 9.822299 2.573737 24.520523 14.118306
2003-03-21 07:17:32 51°13.753 2°55.695 9.219029 2.564377 24.419011 14.556529
2003-03-21 07:17:36 51°13.757 2°55.692 9.516213 2.563746 24.410019 14.556529
2003-03-21 07:17:42 51°13.763 2°55.685 9.691424 2.558173 24.348762 14.859913
2003-03-21 07:17:47 51°13.77 2°55.679 9.691424 2.558173 24.348762 14.859913
2003-03-21 07:17:51 51°13.775 2°55.674 9.465965 2.540297 24.15666 15.06217
2003-03-21 07:17:56 51°13.782 2°55.668 9.293986 2.545239 24.203525 15.365554
2003-03-21 07:18:02 51°13.789 2°55.66 9.321006 2.529255 24.023757 16.376836
2003-03-21 07:18:06 51°13.795 2°55.655 9.781793 2.50791 23.784418 17.556665
2003-03-21 07:18:11 51°13.803 2°55.649 9.564109 2.475211 23.426009 18.43311
2003-03-21 07:18:16 51°13.81 2°55.643 9.564109 2.475211 23.426009 18.43311
2003-03-21 07:18:22 51°13.819 2°55.636 9.431199 2.447982 23.130471 18.736494
2003-03-21 07:18:27 51°13.827 2°55.631 9.470221 2.430741 22.938997 18.601657
2003-03-21 07:18:31 51°13.834 2°55.625 10.117076 2.421174 22.833341 18.770204
2003-03-21 07:18:36 51°13.843 2°55.619 9.667008 2.431476 22.93318 19.680358
2003-03-21 07:18:42 51°13.853 2°55.612 9.692413 2.460597 23.232319 20.185999
2003-03-21 07:18:47 51°13.863 2°55.605 9.692413 2.460597 23.232319 20.185999
2003-03-21 07:18:52 51°13.873 2°55.598 9.495514 2.478996 23.430962 21.365828
2003-03-21 07:18:56 51°13.879 2°55.593 9.282131 2.484253 23.491216 21.163571
2003-03-21 07:19:01 51°13.887 2°55.588 9.230657 2.486251 23.514813 21.197281
2003-03-21 07:19:06 51°13.895 2°55.582 9.192583 2.504335 23.701997 20.995024
2003-03-21 07:19:12 51°13.907 2°55.574 9.854695 2.51853 23.850074 20.590512
2003-03-21 07:19:16 51°13.914 2°55.569 9.854695 2.51853 23.850074 20.590512
2003-03-21 07:19:22 51°13.926 2°55.562 9.107286 2.523366 23.903859 20.185999
2003-03-21 07:19:27 51°13.934 2°55.555 9.416293 2.549654 24.185675 19.680358
2003-03-21 07:19:32 51°13.943 2°55.549 9.268804 2.55975 24.305696 18.97246
2003-03-21 07:19:37 51°13.951 2°55.543 9.181802 2.575734 24.483218 18.264563
2003-03-21 07:19:41 51°13.958 2°55.538 9.386046 2.575839 24.489705 17.725212
2003-03-21 07:19:46 51°13.968 2°55.532 9.386046 2.575839 24.489705 17.725212
2003-03-21 07:19:52 51°13.979 2°55.524 9.220547 2.58909 24.639582 17.556665
2003-03-21 07:19:57 51°13.989 2°55.517 9.29555 2.600238 24.762225 17.084734
2003-03-21 07:20:01 51°13.996 2°55.511 9.546447 2.594138 24.702038 16.477965
2003-03-21 07:20:07 51°14.008 2°55.503 9.326646 2.61696 24.945208 15.399264
2003-03-21 07:20:11 51°14.016 2°55.498 9.514843 2.614541 24.922921 14.725076
2003-03-21 07:20:17 51°14.028 2°55.49 9.514843 2.614541 24.922921 14.725076
2003-03-21 07:20:21 51°14.036 2°55.484 8.763201 2.641255 25.208515 14.522819
2003-03-21 07:20:27 51°14.051 2°55.474 9.331195 2.662291 25.444923 14.185725
2003-03-21 07:20:31 51°14.058 2°55.468 8.638216 2.666078 25.494097 14.657657
2003-03-21 07:20:37 51°14.068 2°55.462 8.608944 2.683854 25.69875 14.4554
2003-03-21 07:20:42 51°14.075 2°55.457 9.630038 2.707627 25.965202 14.556529
2003-03-21 07:20:47 51°14.083 2°55.451 9.630038 2.707627 25.965202 14.556529
2003-03-21 07:20:51 51°14.089 2°55.446 8.912845 2.709731 26.001451 14.590238
2003-03-21 07:20:56 51°14.097 2°55.441 9.327025 2.738029 26.313348 14.219435
2003-03-21 07:21:02 51°14.109 2°55.433 9.7447 2.747182 26.414077 14.185725
2003-03-21 07:21:06 51°14.117 2°55.427 9.02778 2.752126 26.476183 13.781212
2003-03-21 07:21:11 51°14.125 2°55.421 9.634566 2.761595 26.579748 13.3767
2003-03-21 07:21:16 51°14.134 2°55.414 9.634566 2.761595 26.579748 13.3767
2003-03-21 07:21:22 51°14.145 2°55.406 9.092401 2.754862 26.507761 13.241862
2003-03-21 07:21:27 51°14.154 2°55.398 8.848618 2.761805 26.581978 12.601383
2003-03-21 07:21:32 51°14.163 2°55.39 9.672948 2.762542 26.592399 12.533965
2003-03-21 07:21:37 51°14.171 2°55.382 8.934781 2.765382 26.627093 12.365418
2003-03-21 07:21:41 51°14.178 2°55.375 9.266954 2.75886 26.561224 12.23058
2003-03-21 07:21:46 51°14.187 2°55.366 9.266954 2.75886 26.561224 12.23058
2003-03-21 07:21:52 51°14.198 2°55.354 9.181612 2.760017 26.57349 12.432836
2003-03-21 07:21:56 51°14.205 2°55.346 8.791447 2.758439 26.556764 12.297999
2003-03-21 07:22:02 51°14.216 2°55.333 9.24589 2.754546 26.514858 12.466546
2003-03-21 07:22:07 51°14.227 2°55.321 8.96867 2.748865 26.456621 12.432836
2003-03-21 07:22:12 51°14.235 2°55.31 8.978915 2.743185 26.398393 12.331708
2003-03-21 07:22:16 51°14.241 2°55.301 8.978915 2.743185 26.398393 12.331708
2003-03-21 07:22:22 51°14.25 2°55.288 8.909602 2.749707 26.467493 12.365418
2003-03-21 07:22:27 51°14.257 2°55.276 9.243755 2.751075 26.488507 12.365418
2003-03-21 07:22:32 51°14.263 2°55.265 8.909936 2.748024 26.458779 12.837349
2003-03-21 07:22:37 51°14.27 2°55.252 8.832718 2.752232 26.507955 12.904768
2003-03-21 07:22:41 51°14.275 2°55.242 9.080176 2.754021 26.532801 12.871059
2003-03-21 07:22:46 51°14.282 2°55.229 9.080176 2.754021 26.532801 12.871059
2003-03-21 07:22:52 51°14.29 2°55.214 9.030303 2.748129 26.470979 13.140734
2003-03-21 07:22:56 51°14.295 2°55.203 9.211481 2.755073 26.545267 13.140734
2003-03-21 07:23:02 51°14.303 2°55.188 9.173205 2.755704 26.548037 13.073315
2003-03-21 07:23:07 51°14.311 2°55.176 8.833339 2.745709 26.43881 13.275571
2003-03-21 07:23:12 51°14.318 2°55.162 8.791638 2.752758 26.516145 13.34299
2003-03-21 07:23:17 51°14.324 2°55.148 8.791638 2.752758 26.516145 13.34299
2003-03-21 07:23:22 51°14.33 2°55.132 9.168645 2.743921 26.423761 13.444118
2003-03-21 07:23:27 51°14.337 2°55.117 9.057339 2.746656 26.449497 13.612665
2003-03-21 07:23:32 51°14.343 2°55.101 9.267381 2.748234 26.468181 13.781212
2003-03-21 07:23:37 51°14.349 2°55.084 8.9782 2.740976 26.39319 14.050888
2003-03-21 07:23:41 51°14.354 2°55.071 9.039205 2.733717 26.31303 14.253144
2003-03-21 07:23:46 51°14.36 2°55.054 9.039205 2.733717 26.31303 14.253144
2003-03-21 07:23:52 51°14.367 2°55.034 9.336786 2.721303 26.183505 14.185725
2003-03-21 07:23:56 51°14.372 2°55.02 9.316314 2.715939 26.129284 14.050888
2003-03-21 07:24:02 51°14.381 2°55 8.985871 2.717096 26.141534 13.848631
2003-03-21 07:24:06 51°14.387 2°54.987 9.102245 2.701948 25.978669 14.084597
2003-03-21 07:24:12 51°14.396 2°54.968 9.103767 2.696899 25.922712 14.286853
2003-03-21 07:24:17 51°14.404 2°54.952 9.103767 2.696899 25.922712 14.286853
2003-03-21 07:24:22 51°14.412 2°54.936 9.454615 2.70058 25.95717 14.017178
2003-03-21 07:24:27 51°14.42 2°54.921 9.022876 2.701316 25.954088 14.118306
2003-03-21 07:24:32 51°14.429 2°54.905 9.107999 2.712888 26.07579 13.848631
2003-03-21 07:24:37 51°14.437 2°54.888 9.418375 2.714676 26.097916 13.410409
2003-03-21 07:24:41 51°14.443 2°54.875 9.526324 2.734243 26.30564 13.410409
2003-03-21 07:24:46 51°14.453 2°54.859 9.526324 2.734243 26.30564 13.410409
2003-03-21 07:24:52 51°14.464 2°54.842 8.477226 2.749497 26.472434 13.208153
2003-03-21 07:24:56 51°14.473 2°54.832 8.892239 2.764436 26.636728 13.005896
2003-03-21 07:25:02 51°14.486 2°54.818 9.129583 2.773378 26.742159 13.275571
2003-03-21 07:25:07 51°14.496 2°54.808 8.726907 2.790843 26.94494 13.680084
2003-03-21 07:25:12 51°14.507 2°54.797 9.076228 2.809466 27.160475 14.421691
2003-03-21 07:25:17 51°14.518 2°54.789 9.076228 2.809466 27.160475 14.421691
2003-03-21 07:25:22 51°14.529 2°54.783 8.486685 2.828406 27.375109 15.129589
2003-03-21 07:25:27 51°14.54 2°54.778 8.463636 2.832299 27.429506 15.803777
2003-03-21 07:25:32 51°14.552 2°54.774 8.886513 2.848293 27.61049 17.489247
2003-03-21 07:25:37 51°14.564 2°54.773 9.271365 2.881335 27.982473 18.770204
2003-03-21 07:25:41 51°14.573 2°54.772 8.813806 2.894595 28.146095 20.253418
2003-03-21 07:25:46 51°14.584 2°54.774 8.813806 2.894595 28.146095 20.253418
2003-03-21 07:25:52 51°14.599 2°54.775 8.74575 2.920799 28.43995 21.433247
2003-03-21 07:25:56 51°14.609 2°54.777 8.86208 2.942479 28.67864 22.91646
2003-03-21 07:26:02 51°14.623 2°54.782 8.58733 2.971527 28.994153 24.399674
2003-03-21 07:26:07 51°14.634 2°54.786 9.124544 2.984474 29.137975 25.444665
2003-03-21 07:26:12 51°14.645 2°54.791 8.286705 3.013525 29.45792 26.455947
2003-03-21 07:26:17 51°14.655 2°54.796 8.286705 3.013525 29.45792 26.455947
2003-03-21 07:26:22 51°14.664 2°54.801 9.197379 3.014682 29.47627 26.961589
2003-03-21 07:26:27 51°14.673 2°54.806 9.158478 3.028998 29.633866 27.804324
2003-03-21 07:26:30 51°14.678 2°54.809 8.948987 3.049841 29.864432 28.242546
2003-03-21 07:26:36 51°14.688 2°54.814 8.816671 3.046262 29.828668 28.748187
2003-03-21 07:26:40 51°14.693 2°54.817 8.926627 3.061736 30.002864 29.11899
2003-03-21 07:26:46 51°14.701 2°54.821 8.926627 3.061736 30.002864 29.11899
2003-03-21 07:26:52 51°14.708 2°54.824 8.49475 3.068263 30.077296 29.422375
2003-03-21 07:26:56 51°14.712 2°54.826 8.968813 3.074158 30.144174 29.11899
2003-03-21 07:27:01 51°14.718 2°54.827 8.535156 3.067316 30.073005 29.11899
2003-03-21 07:27:07 51°14.724 2°54.829 8.420831 3.080264 30.220122 29.793178
2003-03-21 07:27:12 51°14.729 2°54.83 8.535732 3.079843 30.224566 29.220118
2003-03-21 07:27:17 51°14.734 2°54.83 8.535732 3.079843 30.224566 29.220118
2003-03-21 07:27:22 51°14.739 2°54.83 8.451341 3.079001 30.223692 28.984153
2003-03-21 07:27:27 51°14.743 2°54.829 8.612634 3.096266 30.411875 29.051571
2003-03-21 07:27:32 51°14.748 2°54.829 8.222285 3.094792 30.399647 28.714477
2003-03-21 07:27:37 51°14.752 2°54.828 8.533573 3.096793 30.41986 28.849315
2003-03-21 07:27:40 51°14.754 2°54.827 7.862479 3.087318 30.317725 28.647059
2003-03-21 07:27:47 51°14.76 2°54.824 7.862479 3.087318 30.317725 28.647059
2003-03-21 07:27:52 51°14.764 2°54.823 8.784231 3.101951 30.477413 28.444802
2003-03-21 07:27:56 51°14.767 2°54.821 8.610717 3.090581 30.356179 28.377383
2003-03-21 07:28:02 51°14.771 2°54.819 8.922956 3.103425 30.497219 28.377383
2003-03-21 07:28:07 51°14.775 2°54.816 8.215102 3.092687 30.379801 27.972871
2003-03-21 07:28:12 51°14.779 2°54.814 8.489229 3.103425 30.494944 28.073999
2003-03-21 07:28:16 51°14.781 2°54.812 8.489229 3.103425 30.494944 28.073999
2003-03-21 07:28:22 51°14.785 2°54.809 8.99616 3.093319 30.388173 28.141418
2003-03-21 07:28:27 51°14.788 2°54.806 8.173626 3.105741 30.523908 27.500939
2003-03-21 07:28:32 51°14.791 2°54.803 8.329215 3.098267 30.442682 28.073999
2003-03-21 07:28:36 51°14.793 2°54.8 8.526808 3.104267 30.510165 27.972871
2003-03-21 07:28:40 51°14.795 2°54.798 8.879594 3.096266 30.42322 27.804324
2003-03-21 07:28:46 51°14.799 2°54.795 8.879594 3.096266 30.42322 27.804324
2003-03-21 07:28:52 51°14.802 2°54.791 8.998637 3.09953 30.461711 28.00658
2003-03-21 07:28:56 51°14.804 2°54.789 8.884652 3.110795 30.582641 28.107708
2003-03-21 07:29:02 51°14.807 2°54.785 8.490046 3.103636 30.504818 27.534648
2003-03-21 07:29:07 51°14.809 2°54.781 8.680591 3.105215 30.521223 27.669486
2003-03-21 07:29:11 51°14.811 2°54.778 7.970057 3.102478 30.490714 27.264973
2003-03-21 07:29:16 51°14.813 2°54.774 7.970057 3.102478 30.490714 27.264973
2003-03-21 07:29:22 51°14.815 2°54.77 8.529063 3.110058 30.573868 26.793042
2003-03-21 07:29:27 51°14.817 2°54.767 8.211775 3.110058 30.572347 26.86046
2003-03-21 07:29:32 51°14.819 2°54.763 8.0516 3.112163 30.597522 27.029007
2003-03-21 07:29:37 51°14.821 2°54.76 8.446297 3.114164 30.620035 26.557076
2003-03-21 07:29:41 51°14.822 2°54.758 8.049474 3.110374 30.580345 26.759332
2003-03-21 07:29:46 51°14.825 2°54.754 8.049474 3.110374 30.580345 26.759332
2003-03-21 07:29:52 51°14.829 2°54.75 8.206809 3.116164 30.641789 26.422238
2003-03-21 07:29:57 51°14.834 2°54.747 8.718967 3.111742 30.595226 26.017725
2003-03-21 07:30:01 51°14.839 2°54.745 8.752827 3.113743 30.618502 25.815469
2003-03-21 07:30:06 51°14.846 2°54.742 8.36655 3.116796 30.652472 25.882888
2003-03-21 07:30:11 51°14.855 2°54.74 8.480443 3.110058 30.579192 25.613212
2003-03-21 07:30:16 51°14.865 2°54.737 8.480443 3.110058 30.579192 25.613212
2003-03-21 07:30:21 51°14.876 2°54.732 8.440772 3.103215 30.505552 25.343537
2003-03-21 07:30:27 51°14.889 2°54.726 8.870002 3.116585 30.651706 25.410956
2003-03-21 07:30:31 51°14.899 2°54.721 7.963765 3.111532 30.597504 25.343537
2003-03-21 07:30:36 51°14.912 2°54.713 8.400307 3.114059 30.626509 25.444665
2003-03-21 07:30:41 51°14.924 2°54.704 8.398576 3.115743 30.644832 25.2087
2003-03-21 07:30:47 51°14.938 2°54.692 8.398576 3.115743 30.644832 25.2087
2003-03-21 07:30:51 51°14.948 2°54.684 8.161082 3.114059 30.628795 25.141281
2003-03-21 07:30:57 51°14.964 2°54.671 8.201215 3.112058 30.607036 25.242409
2003-03-21 07:31:02 51°14.976 2°54.658 7.442849 3.111321 30.601305 25.276118
2003-03-21 07:31:07 51°14.988 2°54.643 8.23636 3.111427 30.60245 25.107571
2003-03-21 07:31:11 51°14.999 2°54.632 7.681988 3.110268 30.589854 24.736768
2003-03-21 07:31:17 51°15.014 2°54.616 7.681988 3.110268 30.589854 24.736768
2003-03-21 07:31:21 51°15.025 2°54.605 7.924209 3.111216 30.601683 24.298546
2003-03-21 07:31:27 51°15.041 2°54.589 7.850504 3.105847 30.544044 25.073862
2003-03-21 07:31:31 51°15.051 2°54.578 8.523737 3.11269 30.619241 24.433383
2003-03-21 07:31:37 51°15.067 2°54.561 7.974073 3.100057 30.484115 24.129999
2003-03-21 07:31:42 51°15.081 2°54.548 8.173675 3.109426 30.586021 24.770477
2003-03-21 07:31:47 51°15.094 2°54.534 8.173675 3.109426 30.586021 24.770477
2003-03-21 07:31:52 51°15.109 2°54.521 8.562927 3.110584 30.597096 25.714341
2003-03-21 07:31:57 51°15.123 2°54.507 8.534293 3.113322 30.624589 26.219982
2003-03-21 07:32:01 51°15.134 2°54.496 7.667013 3.11269 30.614669 27.568358
2003-03-21 07:32:07 51°15.151 2°54.479 8.183612 3.115427 30.641396 28.377383
2003-03-21 07:32:12 51°15.165 2°54.464 8.313283 3.108268 30.561252 28.54593
2003-03-21 07:32:17 51°15.18 2°54.45 8.313283 3.108268 30.561252 28.54593
2003-03-21 07:32:21 51°15.191 2°54.438 8.187712 3.111532 30.59522 28.478512
2003-03-21 07:32:27 51°15.209 2°54.42 8.675182 3.120165 30.685303 28.647059
2003-03-21 07:32:31 51°15.221 2°54.407 8.113922 3.124902 30.735315 28.411093
2003-03-21 07:32:37 51°15.238 2°54.388 8.117254 3.124692 30.729966 28.377383
2003-03-21 07:32:41 51°15.25 2°54.375 7.814517 3.122586 30.705534 27.838033
2003-03-21 07:32:47 51°15.267 2°54.356 7.814517 3.122586 30.705534 27.838033
2003-03-21 07:32:51 51°15.279 2°54.343 7.929101 3.125639 30.735688 27.736905
2003-03-21 07:32:57 51°15.296 2°54.324 8.046622 3.129219 30.770801 27.264973
2003-03-21 07:33:01 51°15.308 2°54.312 8.38069 3.134694 30.828828 27.264973
2003-03-21 07:33:07 51°15.326 2°54.293 7.901782 3.133851 30.818132 26.422238
2003-03-21 07:33:11 51°15.338 2°54.28 7.945128 3.13901 30.870426 26.186272
2003-03-21 07:33:17 51°15.357 2°54.261 7.945128 3.13901 30.870426 26.186272
2003-03-21 07:33:21 51°15.368 2°54.247 8.113246 3.137852 30.85399 25.646922
2003-03-21 07:33:27 51°15.386 2°54.227 8.036132 3.141221 30.886037 25.2087
2003-03-21 07:33:32 51°15.402 2°54.21 7.859522 3.1408 30.875317 24.905315
2003-03-21 07:33:37 51°15.417 2°54.193 8.098468 3.139326 30.855453 24.669349
2003-03-21 07:33:41 51°15.43 2°54.18 7.894127 3.143327 30.898962 24.568221
2003-03-21 07:33:47 51°15.449 2°54.159 7.894127 3.143327 30.898962 24.568221
2003-03-21 07:33:52 51°15.464 2°54.141 8.560529 3.145327 30.919952 24.096289
2003-03-21 07:33:57 51°15.478 2°54.122 8.179367 3.146591 30.938306 24.163708
2003-03-21 07:34:01 51°15.489 2°54.106 8.097309 3.147538 30.953229 24.06258
2003-03-21 07:34:07 51°15.506 2°54.083 8.049522 3.147749 30.954751 24.399674
2003-03-21 07:34:12 51°15.521 2°54.064 8.249227 3.147959 30.957043 24.804187
2003-03-21 07:34:17 51°15.536 2°54.045 8.249227 3.147959 30.957043 24.804187
2003-03-21 07:34:21 51°15.548 2°54.031 7.726259 3.149539 30.974228 24.60193
2003-03-21 07:34:27 51°15.567 2°54.01 7.943482 3.14638 30.93909 24.60193
2003-03-21 07:34:31 51°15.579 2°53.997 8.293206 3.150381 30.980314 24.669349
2003-03-21 07:34:37 51°15.598 2°53.976 8.354188 3.149223 30.966943 24.129999
2003-03-21 07:34:41 51°15.611 2°53.963 8.161275 3.148591 30.961608 24.06258
2003-03-21 07:34:47 51°15.631 2°53.942 8.161275 3.148591 30.961608 24.06258
2003-03-21 07:34:51 51°15.644 2°53.928 7.941448 3.144064 30.91389 23.590648
2003-03-21 07:34:57 51°15.663 2°53.907 8.019208 3.145327 30.928404 22.91646
2003-03-21 07:35:01 51°15.675 2°53.893 8.140813 3.1428 30.900146 22.511947
2003-03-21 07:35:07 51°15.694 2°53.872 8.05798 3.145433 30.931855 22.040016
2003-03-21 07:35:11 51°15.707 2°53.858 8.210473 3.144696 30.925374 21.770341
2003-03-21 07:35:17 51°15.726 2°53.837 8.210473 3.144696 30.925374 21.770341
2003-03-21 07:35:21 51°15.738 2°53.822 7.691369 3.143011 30.915497 21.298409
2003-03-21 07:35:27 51°15.757 2°53.801 7.56891 3.142169 30.910942 20.792768
2003-03-21 07:35:31 51°15.77 2°53.786 7.965894 3.139116 30.883856 20.523093
2003-03-21 07:35:37 51°15.789 2°53.765 7.808453 3.140274 30.900304 20.523093
2003-03-21 07:35:41 51°15.802 2°53.751 8.158138 3.138379 30.883515 19.983742
2003-03-21 07:35:47 51°15.821 2°53.73 8.158138 3.138379 30.883515 19.983742
2003-03-21 07:35:51 51°15.834 2°53.716 7.633745 3.135115 30.852589 19.612939
2003-03-21 07:35:57 51°15.853 2°53.695 7.363507 3.135641 30.859088 19.410683
2003-03-21 07:36:01 51°15.867 2°53.681 7.640312 3.135957 30.864831 19.309554
2003-03-21 07:36:07 51°15.886 2°53.66 8.355487 3.130483 30.808293 19.511811
2003-03-21 07:36:11 51°15.899 2°53.646 7.990767 3.134905 30.858743 19.141007
2003-03-21 07:36:17 51°15.918 2°53.625 7.990767 3.134905 30.858743 19.141007
2003-03-21 07:36:21 51°15.931 2°53.611 8.029024 3.135642 30.867537 19.00617
2003-03-21 07:36:27 51°15.95 2°53.589 8.150031 3.135326 30.86717 18.938751
2003-03-21 07:36:32 51°15.966 2°53.572 8.197743 3.131114 30.823608 19.073589
2003-03-21 07:36:37 51°15.982 2°53.555 8.187422 3.136168 30.87865 18.905042
2003-03-21 07:36:41 51°15.995 2°53.541 7.479679 3.130588 30.818643 18.97246
2003-03-21 07:36:46 51°16.011 2°53.524 7.479679 3.130588 30.818643 18.97246
2003-03-21 07:36:51 51°16.028 2°53.506 7.83552 3.135115 30.871793 18.905042
2003-03-21 07:36:57 51°16.047 2°53.486 7.950695 3.134799 30.869889 19.00617
2003-03-21 07:37:02 51°16.062 2°53.468 8.391893 3.130377 30.818651 19.309554
2003-03-21 07:37:06 51°16.075 2°53.454 7.558536 3.134799 30.866046 19.54552
2003-03-21 07:37:11 51°16.092 2°53.437 7.562578 3.134905 30.867962 19.747777
2003-03-21 07:37:17 51°16.111 2°53.416 7.562578 3.134905 30.867962 19.747777
2003-03-21 07:37:21 51°16.124 2°53.402 7.918785 3.135431 30.872928 19.646648
2003-03-21 07:37:27 51°16.143 2°53.381 7.95723 3.135115 30.874099 20.084871
2003-03-21 07:37:31 51°16.156 2°53.367 8.078469 3.134273 30.864154 20.489383
2003-03-21 07:37:37 51°16.175 2°53.346 8.313427 3.134378 30.863764 20.624221
2003-03-21 07:37:41 51°16.187 2°53.332 7.797972 3.134694 30.867205 20.995024
2003-03-21 07:37:47 51°16.206 2°53.311 7.797972 3.134694 30.867205 20.995024
2003-03-21 07:37:52 51°16.222 2°53.293 7.900862 3.135431 30.872928 21.433247
2003-03-21 07:37:57 51°16.239 2°53.276 8.340187 3.134483 30.861069 21.669212
2003-03-21 07:38:01 51°16.252 2°53.263 7.778462 3.134168 30.858397 21.601794
2003-03-21 07:38:07 51°16.272 2°53.243 7.815294 3.136694 30.885922 21.096153
2003-03-21 07:38:12 51°16.288 2°53.226 7.727037 3.132167 30.838145 21.365828
2003-03-21 07:38:17 51°16.305 2°53.208 7.727037 3.132167 30.838145 21.365828
2003-03-21 07:38:21 51°16.317 2°53.194 8.046622 3.133747 30.859956 20.961315
2003-03-21 07:38:27 51°16.337 2°53.173 7.885841 3.131325 30.835881 20.893896
2003-03-21 07:38:32 51°16.352 2°53.155 8.122758 3.132062 30.84775 20.65793
2003-03-21 07:38:37 51°16.369 2°53.138 7.928423 3.131009 30.840888 20.624221
2003-03-21 07:38:42 51°16.385 2°53.121 7.496843 3.132904 30.865384 20.388255
2003-03-21 07:38:47 51°16.401 2°53.104 7.496843 3.132904 30.865384 20.388255
2003-03-21 07:38:51 51°16.415 2°53.09 7.738598 3.131852 30.857753 20.421965
2003-03-21 07:38:57 51°16.434 2°53.069 7.700798 3.125745 30.79504 20.421965
2003-03-21 07:39:01 51°16.447 2°53.055 8.053051 3.131852 30.861598 20.624221
2003-03-21 07:39:07 51°16.466 2°53.034 8.408238 3.128061 30.819516 20.995024
2003-03-21 07:39:12 51°16.482 2°53.016 7.900329 3.133115 30.873832 21.23099
2003-03-21 07:39:17 51°16.499 2°53 7.900329 3.133115 30.873832 21.23099
2003-03-21 07:39:21 51°16.512 2°52.985 7.989122 3.132378 30.863491 21.905178
2003-03-21 07:39:27 51°16.532 2°52.965 8.0876 3.134168 30.880693 22.646785
2003-03-21 07:39:32 51°16.548 2°52.947 7.841194 3.136695 30.906697 23.118717
2003-03-21 07:39:37 51°16.564 2°52.93 8.188339 3.136274 30.902876 23.590648
2003-03-21 07:39:41 51°16.578 2°52.917 7.94871 3.139116 30.933867 24.028871
2003-03-21 07:39:47 51°16.597 2°52.896 7.94871 3.139116 30.933867 24.028871
2003-03-21 07:39:51 51°16.61 2°52.882 8.564797 3.134484 30.883366 24.332255
2003-03-21 07:39:57 51°16.629 2°52.861 8.095328 3.137958 30.922781 23.927742
2003-03-21 07:40:01 51°16.642 2°52.847 8.049135 3.139959 30.947676 23.219845
2003-03-21 07:40:07 51°16.662 2°52.827 8.001555 3.140696 30.960342 22.646785
2003-03-21 07:40:12 51°16.678 2°52.809 7.964249 3.134694 30.901059 22.242272
2003-03-21 07:40:17 51°16.694 2°52.792 7.964249 3.134694 30.901059 22.242272
2003-03-21 07:40:21 51°16.707 2°52.779 7.83906 3.138906 30.954709 21.635503
2003-03-21 07:40:27 51°16.726 2°52.758 8.201505 3.135116 30.919526 21.129862
2003-03-21 07:40:32 51°16.742 2°52.742 7.882449 3.137327 30.945967 20.759059
2003-03-21 07:40:37 51°16.758 2°52.726 7.763849 3.134695 30.921872 20.388255
2003-03-21 07:40:41 51°16.771 2°52.712 8.045655 3.132484 30.901599 19.848905
2003-03-21 07:40:47 51°16.79 2°52.693 8.045655 3.132484 30.901599 19.848905
2003-03-21 07:40:51 51°16.802 2°52.681 8.521962 3.134063 30.922693 19.848905
2003-03-21 07:40:57 51°16.821 2°52.662 8.442213 3.13301 30.911201 19.680358
2003-03-21 07:41:01 51°16.833 2°52.649 8.013695 3.133958 30.923858 19.680358
2003-03-21 07:41:07 51°16.853 2°52.631 8.008423 3.132905 30.911594 19.747777
2003-03-21 07:41:11 51°16.866 2°52.618 7.934185 3.134905 30.93343 19.714067
2003-03-21 07:41:17 51°16.884 2°52.601 7.934185 3.134905 30.93343 19.714067
2003-03-21 07:41:21 51°16.897 2°52.588 7.616423 3.133958 30.923858 19.54552
2003-03-21 07:41:27 51°16.916 2°52.57 8.014904 3.1368 30.95103 19.714067
2003-03-21 07:41:32 51°16.933 2°52.554 8.095425 3.138064 30.964822 19.714067
2003-03-21 07:41:37 51°16.949 2°52.538 8.024431 3.134695 30.926501 19.680358
2003-03-21 07:41:41 51°16.961 2°52.525 8.027719 3.139643 30.982064 19.57923
2003-03-21 07:41:47 51°16.981 2°52.506 8.027719 3.139643 30.982064 19.57923
2003-03-21 07:41:50 51°16.991 2°52.497 7.830864 3.137327 30.95446 19.781486
2003-03-21 07:41:57 51°17.013 2°52.477 7.91428 3.138169 30.963654 20.489383
2003-03-21 07:42:01 51°17.026 2°52.465 7.7163 3.14217 31.006559 20.455674
2003-03-21 07:42:06 51°17.042 2°52.449 7.956214 3.144592 31.029128 20.725349
2003-03-21 07:42:11 51°17.058 2°52.435 8.47521 3.151119 31.097306 21.028734
2003-03-21 07:42:17 51°17.078 2°52.418 8.47521 3.151119 31.097306 21.028734
2003-03-21 07:42:22 51°17.094 2°52.404 8.433229 3.155436 31.141344 21.028734
2003-03-21 07:42:27 51°17.111 2°52.391 8.154423 3.162175 31.211835 21.062443
2003-03-21 07:42:32 51°17.128 2°52.377 8.590877 3.161332 31.199522 21.365828
2003-03-21 07:42:37 51°17.145 2°52.364 7.956408 3.168281 31.273874 21.669212
2003-03-21 07:42:41 51°17.158 2°52.353 7.960716 3.17144 31.306825 21.736631
2003-03-21 07:42:47 51°17.178 2°52.335 7.960716 3.17144 31.306825 21.736631
2003-03-21 07:42:51 51°17.191 2°52.323 8.233805 3.175231 31.3459 21.635503
2003-03-21 07:42:57 51°17.211 2°52.307 7.993718 3.176599 31.360858 21.365828
2003-03-21 07:43:02 51°17.228 2°52.293 7.956165 3.174072 31.332463 21.568084
2003-03-21 07:43:07 51°17.245 2°52.281 8.080305 3.179969 31.398464 21.332118
2003-03-21 07:43:12 51°17.263 2°52.269 7.920964 3.179548 31.393861 20.927606
2003-03-21 07:43:17 51°17.28 2°52.256 7.920964 3.179548 31.393861 20.927606
2003-03-21 07:43:21 51°17.294 2°52.248 7.59861 3.176389 31.359338 21.163571
2003-03-21 07:43:27 51°17.316 2°52.235 7.878378 3.181548 31.416511 20.893896
2003-03-21 07:43:32 51°17.334 2°52.226 8.389537 3.183233 31.434927 20.69164
2003-03-21 07:43:37 51°17.352 2°52.218 7.994202 3.183865 31.44105 19.882614
2003-03-21 07:43:41 51°17.367 2°52.212 8.307795 3.182496 31.423736 19.714067
2003-03-21 07:43:47 51°17.389 2°52.204 8.307795 3.182496 31.423736 19.714067
2003-03-21 07:43:52 51°17.407 2°52.196 8.290076 3.184075 31.440216 19.54552
2003-03-21 07:43:57 51°17.425 2°52.191 8.223201 3.183654 31.43718 19.174717
2003-03-21 07:44:01 51°17.44 2°52.187 7.827857 3.185128 31.454079 19.00617
2003-03-21 07:44:07 51°17.461 2°52.181 8.021142 3.184602 31.448324 18.803913
2003-03-21 07:44:12 51°17.479 2°52.176 8.026655 3.185339 31.45795 18.365691
2003-03-21 07:44:17 51°17.497 2°52.171 8.026655 3.185339 31.45795 18.365691
2003-03-21 07:44:22 51°17.515 2°52.166 7.579769 3.185971 31.464857 18.298272
2003-03-21 07:44:27 51°17.533 2°52.161 7.502059 3.186708 31.476841 17.961178
2003-03-21 07:44:31 51°17.548 2°52.158 7.933943 3.187339 31.48532 17.927469
2003-03-21 07:44:37 51°17.57 2°52.153 7.812625 3.187761 31.492282 17.691503
2003-03-21 07:44:41 51°17.585 2°52.15 7.972525 3.18913 31.50804 17.354409
2003-03-21 07:44:46 51°17.603 2°52.146 7.972525 3.18913 31.50804 17.354409
2003-03-21 07:44:51 51°17.622 2°52.143 7.932442 3.189551 31.515791 17.489247
2003-03-21 07:44:57 51°17.643 2°52.14 7.691126 3.19092 31.533126 17.421828
2003-03-21 07:45:02 51°17.662 2°52.137 8.162047 3.191551 31.540825 17.522956
2003-03-21 07:45:06 51°17.676 2°52.135 7.960958 3.19292 31.558165 17.185862
2003-03-21 07:45:11 51°17.695 2°52.131 7.797924 3.193868 31.570111 16.781349
2003-03-21 07:45:17 51°17.718 2°52.127 7.797924 3.193868 31.570111 16.781349
2003-03-21 07:45:21 51°17.732 2°52.124 7.829555 3.194184 31.575143 16.71393
2003-03-21 07:45:27 51°17.754 2°52.119 7.776617 3.191657 31.548274 16.545383
2003-03-21 07:45:31 51°17.769 2°52.117 7.691904 3.195658 31.596009 16.612802
2003-03-21 07:45:37 51°17.791 2°52.114 7.680286 3.1965 31.607597 16.208289
2003-03-21 07:45:41 51°17.805 2°52.112 7.910502 3.195763 31.603472 16.309418
2003-03-21 07:45:47 51°17.827 2°52.108 7.910502 3.195763 31.603472 16.309418
2003-03-21 07:45:52 51°17.845 2°52.105 7.464022 3.199344 31.646626 16.17458
2003-03-21 07:45:57 51°17.863 2°52.1 7.894272 3.201239 31.672921 16.17458
2003-03-21 07:46:01 51°17.877 2°52.094 7.690154 3.202924 31.699296 16.241999
2003-03-21 07:46:07 51°17.898 2°52.083 7.32089 3.204398 31.723377 16.073452
2003-03-21 07:46:11 51°17.912 2°52.073 7.433284 3.205767 31.746316 16.208289
2003-03-21 07:46:16 51°17.929 2°52.06 7.433284 3.205767 31.746316 16.208289
2003-03-21 07:46:21 51°17.945 2°52.046 7.830816 3.205978 31.758151 16.343127
2003-03-21 07:46:27 51°17.965 2°52.028 7.832368 3.205346 31.756778 16.343127
2003-03-21 07:46:32 51°17.981 2°52.013 7.508153 3.205557 31.765443 16.309418
2003-03-21 07:46:37 51°17.997 2°51.996 7.626836 3.204188 31.76075 16.17458
2003-03-21 07:46:42 51°18.012 2°51.978 7.823249 3.203662 31.762123 15.904905
2003-03-21 07:46:47 51°18.027 2°51.958 7.823249 3.203662 31.762123 15.904905
2003-03-21 07:46:52 51°18.041 2°51.938 7.341371 3.202503 31.75497 16.107161
2003-03-21 07:46:57 51°18.056 2°51.918 7.861267 3.201345 31.745431 15.972324
2003-03-21 07:47:01 51°18.067 2°51.9 7.89902 3.19945 31.727797 15.871195
2003-03-21 07:47:07 51°18.083 2°51.873 7.577042 3.199134 31.725123 15.736358
2003-03-21 07:47:11 51°18.093 2°51.855 7.619975 3.198292 31.718255 15.432973
2003-03-21 07:47:17 51°18.108 2°51.825 7.619975 3.198292 31.718255 15.432973
2003-03-21 07:47:21 51°18.118 2°51.805 7.652083 3.194606 31.682549 15.60152
2003-03-21 07:47:27 51°18.131 2°51.774 7.710517 3.195449 31.693386 15.298136
2003-03-21 07:47:30 51°18.137 2°51.757 7.570906 3.193659 31.672143 15.567811
2003-03-21 07:47:37 51°18.151 2°51.718 7.211726 3.193764 31.677265 15.432973
2003-03-21 07:47:41 51°18.158 2°51.695 7.407365 3.1925 31.664183 15.298136
2003-03-21 07:47:47 51°18.169 2°51.661 7.407365 3.1925 31.664183 15.298136
2003-03-21 07:47:51 51°18.176 2°51.638 7.776472 3.188183 31.619947 15.399264
2003-03-21 07:47:57 51°18.184 2°51.601 7.409366 3.1905 31.647762 15.466683
2003-03-21 07:48:01 51°18.189 2°51.577 7.48475 3.189552 31.63894 15.60152
2003-03-21 07:48:07 51°18.195 2°51.539 7.963426 3.188815 31.630846 15.534101
2003-03-21 07:48:12 51°18.2 2°51.507 7.870768 3.188183 31.6247 15.837486
2003-03-21 07:48:17 51°18.205 2°51.476 7.870768 3.188183 31.6247 15.837486
2003-03-21 07:48:21 51°18.208 2°51.45 7.647463 3.188078 31.623543 15.567811
2003-03-21 07:48:27 51°18.212 2°51.411 7.646538 3.186077 31.602365 15.500392
2003-03-21 07:48:31 51°18.214 2°51.384 8.046525 3.18692 31.6132 15.365554
2003-03-21 07:48:37 51°18.216 2°51.344 7.487627 3.185235 31.59549 15.432973
2003-03-21 07:48:41 51°18.217 2°51.318 7.167832 3.185656 31.601699 15.331845
2003-03-21 07:48:47 51°18.219 2°51.278 7.167832 3.185656 31.601699 15.331845
2003-03-21 07:48:52 51°18.219 2°51.245 7.406535 3.18534 31.597438 15.264426
2003-03-21 07:48:57 51°18.22 2°51.212 7.964297 3.18513 31.594334 15.230717
2003-03-21 07:49:01 51°18.22 2°51.185 7.844443 3.185446 31.599386 15.230717
2003-03-21 07:49:06 51°18.22 2°51.151 8.085619 3.182287 31.564698 15.500392
2003-03-21 07:49:12 51°18.22 2°51.111 7.965362 3.184709 31.591292 15.500392
2003-03-21 07:49:17 51°18.22 2°51.078 7.965362 3.184709 31.591292 15.500392
2003-03-21 07:49:21 51°18.22 2°51.051 8.080933 3.18534 31.59823 15.702648
2003-03-21 07:49:27 51°18.221 2°51.011 7.244872 3.185024 31.594761 15.668939
2003-03-21 07:49:32 51°18.224 2°50.978 7.373228 3.181971 31.561229 16.17458
2003-03-21 07:49:37 51°18.228 2°50.945 7.845704 3.183656 31.579729 16.107161
2003-03-21 07:49:41 51°18.23 2°50.919 8.249034 3.184498 31.588188 16.275708
2003-03-21 07:49:47 51°18.236 2°50.88 8.249034 3.184498 31.588188 16.275708
2003-03-21 07:49:52 51°18.241 2°50.848 7.769967 3.182497 31.56701 16.343127
2003-03-21 07:49:57 51°18.247 2°50.817 8.204398 3.180392 31.543096 16.949896
2003-03-21 07:50:01 51°18.253 2°50.793 7.650673 3.182181 31.559587 16.511674
2003-03-21 07:50:07 51°18.263 2°50.757 7.883757 3.180707 31.541823 16.71393
2003-03-21 07:50:11 51°18.27 2°50.733 7.407316 3.180602 31.539087 17.219571
2003-03-21 07:50:17 51°18.282 2°50.7 7.407316 3.180602 31.539087 17.219571
2003-03-21 07:50:21 51°18.291 2°50.678 8.082962 3.179339 31.524427 17.388118
2003-03-21 07:50:27 51°18.306 2°50.648 7.726891 3.17818 31.512504 17.455537
2003-03-21 07:50:32 51°18.319 2°50.624 7.727474 3.177549 31.506359 17.556665
2003-03-21 07:50:37 51°18.333 2°50.602 7.841582 3.176285 31.492491 17.691503
2003-03-21 07:50:41 51°18.344 2°50.584 7.763995 3.175759 31.489079 17.758922
2003-03-21 07:50:47 51°18.362 2°50.559 7.763995 3.175759 31.489079 17.758922
2003-03-21 07:50:52 51°18.377 2°50.539 8.009391 3.175022 31.48099 17.691503
2003-03-21 07:50:57 51°18.392 2°50.52 7.610972 3.174179 31.472533 17.624084
2003-03-21 07:51:01 51°18.405 2°50.506 7.766762 3.173126 31.460189 17.522956
2003-03-21 07:51:07 51°18.424 2°50.486 8.164459 3.17281 31.458299 17.556665
2003-03-21 07:51:12 51°18.441 2°50.471 7.84711 3.1726 31.456776 16.916187
2003-03-21 07:51:17 51°18.458 2°50.457 7.84711 3.1726 31.456776 16.916187
2003-03-21 07:51:21 51°18.472 2°50.448 7.80724 3.171757 31.445955 16.815059
2003-03-21 07:51:27 51°18.493 2°50.435 8.082044 3.168493 31.410138 16.949896
2003-03-21 07:51:32 51°18.511 2°50.425 7.767539 3.16902 31.415914 16.444255
2003-03-21 07:51:37 51°18.529 2°50.417 7.805784 3.167546 31.39974 16.410546
2003-03-21 07:51:40 51°18.54 2°50.414 7.964442 3.169968 31.426313 16.275708
2003-03-21 07:51:47 51°18.565 2°50.407 7.964442 3.169968 31.426313 16.275708
2003-03-21 07:51:51 51°18.579 2°50.404 7.80263 3.16923 31.418225 15.904905
2003-03-21 07:51:57 51°18.602 2°50.4 8.077261 3.16723 31.397848 16.006033
2003-03-21 07:52:01 51°18.616 2°50.398 7.91738 3.167019 31.395537 15.466683
2003-03-21 07:52:07 51°18.639 2°50.395 7.7987 3.167335 31.39979 15.466683
2003-03-21 07:52:12 51°18.657 2°50.394 7.565452 3.168388 31.408983 15.466683
2003-03-21 07:52:17 51°18.676 2°50.392 7.565452 3.168388 31.408983 15.466683
2003-03-21 07:52:21 51°18.69 2°50.391 7.796856 3.165335 31.376267 15.298136
2003-03-21 07:52:27 51°18.712 2°50.39 7.63788 3.166914 31.396742 15.230717
2003-03-21 07:52:31 51°18.727 2°50.389 7.719409 3.165019 31.378305 15.163298
2003-03-21 07:52:36 51°18.745 2°50.388 7.832562 3.166177 31.391014 15.230717
2003-03-21 07:52:41 51°18.763 2°50.387 7.716154 3.165967 31.390276 14.961042
2003-03-21 07:52:47 51°18.785 2°50.387 7.716154 3.165967 31.390276 14.961042
2003-03-21 07:52:52 51°18.803 2°50.385 7.475777 3.16344 31.362547 14.691366
2003-03-21 07:52:57 51°18.821 2°50.385 7.990476 3.164177 31.371421 14.994751
2003-03-21 07:53:01 51°18.836 2°50.385 7.753264 3.162913 31.359128 14.48911
2003-03-21 07:53:07 51°18.859 2°50.384 8.085667 3.161966 31.350302 14.657657
2003-03-21 07:53:12 51°18.877 2°50.382 7.792246 3.162071 31.351457 14.387982
2003-03-21 07:53:17 51°18.895 2°50.381 7.792246 3.162071 31.351457 14.387982
2003-03-21 07:53:21 51°18.91 2°50.381 7.908758 3.16007 31.330291 14.421691
2003-03-21 07:53:27 51°18.932 2°50.379 7.748554 3.157965 31.30954 14.253144
2003-03-21 07:53:31 51°18.946 2°50.379 8.381074 3.157965 31.310325 14.354272
2003-03-21 07:53:37 51°18.968 2°50.377 7.706727 3.156069 31.290315 14.152016
2003-03-21 07:53:41 51°18.982 2°50.376 7.984961 3.154174 31.269522 13.882341
2003-03-21 07:53:47 51°19.004 2°50.372 7.984961 3.154174 31.269522 13.882341
2003-03-21 07:53:52 51°19.022 2°50.367 8.138978 3.1527 31.252568 13.713794
2003-03-21 07:53:57 51°19.04 2°50.36 7.93956 3.150489 31.231445 13.680084
2003-03-21 07:54:01 51°19.054 2°50.352 7.54363 3.151437 31.242624 13.3767
2003-03-21 07:54:07 51°19.076 2°50.341 7.423376 3.14912 31.216431 13.208153
2003-03-21 07:54:11 51°19.089 2°50.331 7.423523 3.147541 31.201455 13.174443
2003-03-21 07:54:17 51°19.11 2°50.314 7.423523 3.147541 31.201455 13.174443
2003-03-21 07:54:21 51°19.123 2°50.303 8.018821 3.147331 31.201491 12.702512
2003-03-21 07:54:27 51°19.143 2°50.283 7.581522 3.145014 31.178428 12.668802
2003-03-21 07:54:31 51°19.156 2°50.27 7.221373 3.142382 31.151119 12.702512
2003-03-21 07:54:37 51°19.174 2°50.248 7.303288 3.142382 31.151119 12.635093
2003-03-21 07:54:41 51°19.186 2°50.232 7.297028 3.140276 31.128023 12.466546
2003-03-21 07:54:47 51°19.203 2°50.205 7.297028 3.140276 31.128023 12.466546
2003-03-21 07:54:52 51°19.215 2°50.18 7.614428 3.141224 31.137635 12.365418
2003-03-21 07:54:57 51°19.226 2°50.153 7.615985 3.139329 31.118411 12.365418
2003-03-21 07:55:01 51°19.234 2°50.13 7.132734 3.137434 31.098407 12.432836
2003-03-21 07:55:07 51°19.243 2°50.094 7.653007 3.136381 31.083743 12.23058
2003-03-21 07:55:12 51°19.252 2°50.064 7.774578 3.139539 31.123842 12.297999
2003-03-21 07:55:17 51°19.258 2°50.033 7.774578 3.139539 31.123842 12.297999
2003-03-21 07:55:21 51°19.264 2°50.008 7.930505 3.138276 31.111545 12.297999
2003-03-21 07:55:27 51°19.27 2°49.97 8.042513 3.138592 31.117351 12.062033
2003-03-21 07:55:31 51°19.274 2°49.944 7.751953 3.137223 31.105458 11.927195
2003-03-21 07:55:37 51°19.278 2°49.905 7.83295 3.138592 31.118131 11.994614
2003-03-21 07:55:41 51°19.282 2°49.879 7.831155 3.138803 31.120441 11.421554
2003-03-21 07:55:47 51°19.286 2°49.838 7.831155 3.138803 31.120441 11.421554
2003-03-21 07:55:51 51°19.287 2°49.811 7.711829 3.135539 31.08464 11.758648
2003-03-21 07:55:57 51°19.289 2°49.77 7.831398 3.133959 31.068098 11.65752
2003-03-21 07:56:01 51°19.289 2°49.743 7.628296 3.131012 31.043555 11.859777
2003-03-21 07:56:07 51°19.291 2°49.701 7.798118 3.126063 30.989283 11.927195
2003-03-21 07:56:11 51°19.291 2°49.674 7.758411 3.126063 30.996282 12.196871
2003-03-21 07:56:17 51°19.292 2°49.633 7.758411 3.126063 30.996282 12.196871
2003-03-21 07:56:21 51°19.292 2°49.605 7.603769 3.127748 31.015539 12.567674
2003-03-21 07:56:27 51°19.292 2°49.564 7.642842 3.131538 31.057901 12.736221
2003-03-21 07:56:32 51°19.291 2°49.529 7.913069 3.131328 31.05637 13.241862
2003-03-21 07:56:37 51°19.29 2°49.494 8.153554 3.134486 31.09259 13.578956
2003-03-21 07:56:41 51°19.29 2°49.467 7.756712 3.136276 31.10911 13.680084
2003-03-21 07:56:47 51°19.289 2°49.425 7.756712 3.136276 31.10911 13.680084
2003-03-21 07:56:52 51°19.289 2°49.39 7.680432 3.138592 31.130625 14.522819
2003-03-21 07:56:57 51°19.289 2°49.355 7.999039 3.139856 31.143709 15.06217
2003-03-21 07:57:01 51°19.287 2°49.328 7.63642 3.142593 31.174535 15.399264
2003-03-21 07:57:07 51°19.286 2°49.287 7.477923 3.142172 31.16913 15.331845
2003-03-21 07:57:11 51°19.285 2°49.259 7.519753 3.145436 31.203391 15.534101
2003-03-21 07:57:17 51°19.284 2°49.218 7.519753 3.145436 31.203391 15.534101
2003-03-21 07:57:21 51°19.282 2°49.191 7.994057 3.146067 31.211892 16.107161
2003-03-21 07:57:27 51°19.281 2°49.149 7.478118 3.146489 31.214949 16.579093
2003-03-21 07:57:32 51°19.28 2°49.114 7.279174 3.148068 31.23307 17.084734
2003-03-21 07:57:36 51°19.279 2°49.086 7.63968 3.149331 31.248509 17.084734
2003-03-21 07:57:41 51°19.278 2°49.052 7.56404 3.148384 31.237321 17.455537
2003-03-21 07:57:47 51°19.277 2°49.011 7.56404 3.148384 31.237321 17.455537
2003-03-21 07:57:51 51°19.275 2°48.983 7.880122 3.147226 31.226173 17.354409
2003-03-21 07:57:57 51°19.274 2°48.942 7.802436 3.149226 31.247353 17.522956
2003-03-21 07:58:01 51°19.272 2°48.914 7.396818 3.151964 31.277412 17.624084
2003-03-21 07:58:07 51°19.271 2°48.872 7.637296 3.152385 31.282037 17.489247
2003-03-21 07:58:11 51°19.27 2°48.845 7.764432 3.151858 31.273117 17.624084
2003-03-21 07:58:16 51°19.268 2°48.81 7.764432 3.151858 31.273117 17.624084
2003-03-21 07:58:21 51°19.267 2°48.775 7.606884 3.151332 31.268121 17.624084
2003-03-21 07:58:27 51°19.265 2°48.734 7.757003 3.153648 31.293556 17.28699
2003-03-21 07:58:31 51°19.265 2°48.706 7.996282 3.153227 31.286576 17.489247
2003-03-21 07:58:36 51°19.264 2°48.671 7.203156 3.153964 31.296239 17.489247
2003-03-21 07:58:41 51°19.265 2°48.636 7.622797 3.151332 31.268121 17.219571
2003-03-21 07:58:47 51°19.268 2°48.594 7.622797 3.151332 31.268121 17.219571
2003-03-21 07:58:52 51°19.272 2°48.562 7.483044 3.151753 31.271961 17.28699
2003-03-21 07:58:57 51°19.28 2°48.53 7.446996 3.155438 31.313212 17.017315
2003-03-21 07:59:01 51°19.285 2°48.505 7.841631 3.151964 31.276627 16.74764
2003-03-21 07:59:07 51°19.295 2°48.468 7.972234 3.156175 31.319734 16.848768
2003-03-21 07:59:12 51°19.304 2°48.437 7.833435 3.154806 31.299206 16.612802
2003-03-21 07:59:17 51°19.314 2°48.407 7.833435 3.154806 31.299206 16.612802
2003-03-21 07:59:21 51°19.321 2°48.384 7.719166 3.15628 31.311463 16.511674
2003-03-21 07:59:26 51°19.331 2°48.355 7.631896 3.155227 31.295979 16.343127
2003-03-21 07:59:32 51°19.345 2°48.321 7.514197 3.15628 31.308322 16.241999
2003-03-21 07:59:37 51°19.357 2°48.294 7.911374 3.155333 31.301845 16.309418
2003-03-21 07:59:41 51°19.367 2°48.273 7.589409 3.158386 31.337727 16.208289
2003-03-21 07:59:47 51°19.382 2°48.242 7.589409 3.158386 31.337727 16.208289
2003-03-21 07:59:52 51°19.396 2°48.218 7.912779 3.159439 31.354008 15.63523
2003-03-21 07:59:57 51°19.411 2°48.194 8.190702 3.158491 31.34596 15.534101
2003-03-21 08:00:01 51°19.422 2°48.176 7.623819 3.159965 31.362151 15.770067
2003-03-21 08:00:07 51°19.438 2°48.151 7.861413 3.158597 31.350264 15.399264
2003-03-21 08:00:12 51°19.453 2°48.131 7.659135 3.160387 31.373075 15.264426
2003-03-21 08:00:17 51°19.468 2°48.112 7.659135 3.160387 31.373075 15.264426
2003-03-21 08:00:21 51°19.481 2°48.099 7.78681 3.158386 31.351884 15.197007
2003-03-21 08:00:27 51°19.501 2°48.08 8.097744 3.158913 31.356881 14.961042
2003-03-21 08:00:32 51°19.519 2°48.067 7.700653 3.156807 31.336108 14.826204
2003-03-21 08:00:37 51°19.536 2°48.056 7.500304 3.157017 31.339994 14.961042
2003-03-21 08:00:41 51°19.551 2°48.048 7.77618 3.155543 31.327732 14.522819
2003-03-21 08:00:47 51°19.572 2°48.036 7.77618 3.155543 31.327732 14.522819
2003-03-21 08:00:50 51°19.583 2°48.032 7.721596 3.152385 31.293817 14.590238
2003-03-21 08:00:57 51°19.608 2°48.021 7.638901 3.151858 31.288033 14.691366
2003-03-21 08:01:01 51°19.622 2°48.019 7.683106 3.149858 31.266059 15.06217
2003-03-21 08:01:07 51°19.644 2°48.013 7.546407 3.147331 31.239089 15.331845
2003-03-21 08:01:11 51°19.658 2°48.009 7.431576 3.146594 31.231778 15.163298
2003-03-21 08:01:17 51°19.679 2°48.002 7.431576 3.146594 31.231778 15.163298
2003-03-21 08:01:21 51°19.692 2°47.997 7.736849 3.14154 31.182542 15.399264
2003-03-21 08:01:27 51°19.713 2°47.991 7.883224 3.139961 31.171459 15.702648
2003-03-21 08:01:32 51°19.731 2°47.986 7.795643 3.137434 31.147617 15.803777
2003-03-21 08:01:37 51°19.75 2°47.982 7.148374 3.135013 31.124147 16.140871
2003-03-21 08:01:42 51°19.768 2°47.975 7.42567 3.132802 31.106115 16.006033
2003-03-21 08:01:47 51°19.786 2°47.97 7.42567 3.132802 31.106115 16.006033
2003-03-21 08:01:52 51°19.804 2°47.965 7.498208 3.13017 31.083451 16.17458
2003-03-21 08:01:57 51°19.822 2°47.961 7.495087 3.126274 31.046901 16.039742
2003-03-21 08:02:01 51°19.836 2°47.957 7.386025 3.124485 31.035821 16.241999
2003-03-21 08:02:07 51°19.858 2°47.952 7.974219 3.121958 31.015857 16.208289
2003-03-21 08:02:11 51°19.873 2°47.948 7.520582 3.121748 31.019784 16.140871
2003-03-21 08:02:17 51°19.896 2°47.942 7.520582 3.121748 31.019784 16.140871
2003-03-21 08:02:21 51°19.91 2°47.939 7.721936 3.1188 30.991282 16.477965
2003-03-21 08:02:27 51°19.932 2°47.933 7.313507 3.119537 31.008745 16.511674
2003-03-21 08:02:31 51°19.946 2°47.928 7.59345 3.117536 30.988311 16.612802
2003-03-21 08:02:37 51°19.968 2°47.922 7.231802 3.118168 30.996817 16.376836
2003-03-21 08:02:41 51°19.982 2°47.918 7.387246 3.119642 31.018491 16.71393
2003-03-21 08:02:47 51°20.003 2°47.912 7.387246 3.119642 31.018491 16.71393
2003-03-21 08:02:51 51°20.018 2°47.907 7.74666 3.119432 31.019299 16.511674
2003-03-21 08:02:57 51°20.042 2°47.901 7.471729 3.119747 31.026679 16.71393
2003-03-21 08:03:01 51°20.058 2°47.897 7.511418 3.119853 31.032526 16.882477
2003-03-21 08:03:07 51°20.079 2°47.889 7.502303 3.121643 31.053785 16.882477
2003-03-21 08:03:11 51°20.094 2°47.881 7.578162 3.121643 31.059261 16.71393
2003-03-21 08:03:17 51°20.115 2°47.868 7.578162 3.121643 31.059261 16.71393
2003-03-21 08:03:21 51°20.129 2°47.858 7.613941 3.12238 31.068938 16.646512
2003-03-21 08:03:27 51°20.148 2°47.842 7.258037 3.122064 31.065461 16.073452
2003-03-21 08:03:31 51°20.161 2°47.83 7.613503 3.120906 31.051932 16.241999
2003-03-21 08:03:37 51°20.18 2°47.809 7.530425 3.1188 31.031885 15.972324
2003-03-21 08:03:41 51°20.192 2°47.794 7.168812 3.117432 31.021512 15.567811
2003-03-21 08:03:47 51°20.21 2°47.77 7.168812 3.117432 31.021512 15.567811
2003-03-21 08:03:51 51°20.222 2°47.753 7.088246 3.115431 31.001838 15.466683
2003-03-21 08:03:57 51°20.239 2°47.727 7.483678 3.111641 30.964026 15.432973
2003-03-21 08:04:02 51°20.253 2°47.704 7.160236 3.112905 30.979493 15.365554
2003-03-21 08:04:07 51°20.267 2°47.68 7.203401 3.10943 30.943593 15.129589
2003-03-21 08:04:11 51°20.277 2°47.66 7.355396 3.110273 30.954424 14.691366
2003-03-21 08:04:17 51°20.291 2°47.628 7.355396 3.110273 30.954424 14.691366
2003-03-21 08:04:21 51°20.3 2°47.606 7.275897 3.109851 30.951349 14.792494
2003-03-21 08:04:27 51°20.313 2°47.574 7.391398 3.109115 30.945577 14.556529
2003-03-21 08:04:31 51°20.321 2°47.551 7.632869 3.106377 30.917785 14.421691
2003-03-21 08:04:37 51°20.332 2°47.515 7.307102 3.107851 30.93401 14.320563
2003-03-21 08:04:41 51°20.338 2°47.49 7.46812 3.106167 30.917806 14.017178
2003-03-21 08:04:47 51°20.348 2°47.452 7.46812 3.106167 30.917806 14.017178
2003-03-21 08:04:50 51°20.352 2°47.433 7.226172 3.106798 30.92866 13.747503
2003-03-21 08:04:57 51°20.362 2°47.387 7.507226 3.105535 30.917869 13.646375
2003-03-21 08:05:01 51°20.367 2°47.361 7.345037 3.104798 30.911314 13.34299
2003-03-21 08:05:07 51°20.375 2°47.321 7.309645 3.104693 30.912494 12.904768
2003-03-21 08:05:12 51°20.381 2°47.289 7.578065 3.103956 30.904379 12.601383
2003-03-21 08:05:17 51°20.384 2°47.255 7.578065 3.103956 30.904379 12.601383
2003-03-21 08:05:21 51°20.388 2°47.228 7.577821 3.104377 30.911356 12.466546
2003-03-21 08:05:27 51°20.391 2°47.187 7.614233 3.101535 30.880834 12.163161
2003-03-21 08:05:31 51°20.392 2°47.16 7.885647 3.103535 30.900522 12.028324
2003-03-21 08:05:37 51°20.393 2°47.119 7.213098 3.102798 30.893187 11.893486
2003-03-21 08:05:41 51°20.394 2°47.091 7.691661 3.104693 30.917174 11.387845
2003-03-21 08:05:47 51°20.397 2°47.05 7.691661 3.104693 30.917174 11.387845
2003-03-21 08:05:51 51°20.398 2°47.022 7.341616 3.103851 30.910238 11.522683
2003-03-21 08:05:57 51°20.398 2°46.98 7.621484 3.102166 30.892466 11.320426
2003-03-21 08:06:01 51°20.399 2°46.949 7.741852 3.102588 30.903343 11.151879
2003-03-21 08:06:07 51°20.399 2°46.906 7.298153 3.104693 30.926538 10.983332
2003-03-21 08:06:12 51°20.401 2°46.869 7.333698 3.10343 30.91184 10.915913
2003-03-21 08:06:17 51°20.4 2°46.835 7.333698 3.10343 30.91184 10.915913
2003-03-21 08:06:20 51°20.4 2°46.814 7.614087 3.103114 30.909922 11.219298
2003-03-21 08:06:27 51°20.401 2°46.768 7.457534 3.105851 30.936954 10.882204
2003-03-21 08:06:31 51°20.402 2°46.741 7.095851 3.103535 30.9091 10.949623
2003-03-21 08:06:37 51°20.403 2°46.702 7.228766 3.106483 30.94079 10.882204
2003-03-21 08:06:41 51°20.404 2°46.675 7.570468 3.106693 30.945452 11.11817
2003-03-21 08:06:47 51°20.405 2°46.634 7.570468 3.106693 30.945452 11.11817
2003-03-21 08:06:52 51°20.406 2°46.599 7.296197 3.104588 30.920696 11.050751
2003-03-21 08:06:57 51°20.407 2°46.565 7.383632 3.10743 30.955134 11.08446
2003-03-21 08:07:02 51°20.409 2°46.531 7.339416 3.107325 30.953974 10.949623
2003-03-21 08:07:07 51°20.409 2°46.497 7.898633 3.105956 30.935772 10.915913
2003-03-21 08:07:11 51°20.41 2°46.47 7.694188 3.108062 30.960531 11.11817
2003-03-21 08:07:16 51°20.41 2°46.436 7.694188 3.108062 30.960531 11.11817
2003-03-21 08:07:21 51°20.411 2°46.402 7.544312 3.105956 30.938895 11.151879
2003-03-21 08:07:27 51°20.411 2°46.361 7.740103 3.108273 30.963632 11.286717
2003-03-21 08:07:31 51°20.412 2°46.334 7.672021 3.107957 30.958589 11.219298
2003-03-21 08:07:37 51°20.412 2°46.292 7.710955 3.107009 30.948151 11.11817
2003-03-21 08:07:42 51°20.414 2°46.258 7.508006 3.109957 30.982192 11.151879
2003-03-21 08:07:47 51°20.414 2°46.223 7.508006 3.109957 30.982192 11.151879
2003-03-21 08:07:51 51°20.415 2°46.195 7.455242 3.107115 30.949311 11.151879
2003-03-21 08:07:57 51°20.416 2°46.154 7.508786 3.110273 30.984108 11.050751
2003-03-21 08:08:01 51°20.416 2°46.127 7.818738 3.109746 30.975181 11.219298
2003-03-21 08:08:07 51°20.417 2°46.085 7.624354 3.110799 30.982871 11.11817
2003-03-21 08:08:11 51°20.418 2°46.057 7.380506 3.10922 30.965475 11.08446
2003-03-21 08:08:17 51°20.419 2°46.016 7.380506 3.10922 30.965475 11.08446
2003-03-21 08:08:21 51°20.42 2°45.988 7.425133 3.110589 30.986024 11.185589
2003-03-21 08:08:27 51°20.419 2°45.947 7.500402 3.112063 31.002265 11.320426
2003-03-21 08:08:32 51°20.418 2°45.912 7.38793 3.109536 30.973643 11.08446
2003-03-21 08:08:37 51°20.417 2°45.877 7.428452 3.11122 30.992202 11.253007
2003-03-21 08:08:41 51°20.416 2°45.849 8.064456 3.113852 31.021204 11.253007
2003-03-21 08:08:47 51°20.415 2°45.808 8.064456 3.113852 31.021204 11.253007
2003-03-21 08:08:52 51°20.412 2°45.774 7.904253 3.113852 31.021987 11.151879
2003-03-21 08:08:57 51°20.41 2°45.74 7.548453 3.115326 31.039796 11.151879
2003-03-21 08:09:01 51°20.409 2°45.712 7.785548 3.114168 31.025467 11.219298
2003-03-21 08:09:07 51°20.406 2°45.672 7.668034 3.117116 31.054036 11.151879
2003-03-21 08:09:11 51°20.405 2°45.645 7.551083 3.118274 31.066015 11.320426
2003-03-21 08:09:17 51°20.402 2°45.605 7.551083 3.118274 31.066015 11.320426
2003-03-21 08:09:21 51°20.4 2°45.578 7.75341 3.116063 31.043218 11.185589
2003-03-21 08:09:27 51°20.398 2°45.539 7.30984 3.117748 31.062565 11.286717
2003-03-21 08:09:32 51°20.395 2°45.506 7.628685 3.120696 31.094271 11.320426
2003-03-21 08:09:37 51°20.393 2°45.473 7.748117 3.119643 31.081098 11.387845
2003-03-21 08:09:42 51°20.39 2°45.44 7.665262 3.122591 31.113589 12.196871
2003-03-21 08:09:47 51°20.388 2°45.407 7.665262 3.122591 31.113589 12.196871
2003-03-21 08:09:52 51°20.387 2°45.374 7.825189 3.124907 31.135979 12.76993
2003-03-21 08:09:57 51°20.384 2°45.34 7.38456 3.12796 31.16885 13.241862
2003-03-21 08:10:01 51°20.383 2°45.314 8.105471 3.128487 31.174653 13.983469
2003-03-21 08:10:07 51°20.38 2°45.273 7.429575 3.134488 31.243186 14.152016
2003-03-21 08:10:12 51°20.378 2°45.24 7.665749 3.135751 31.257908 14.725076
2003-03-21 08:10:17 51°20.376 2°45.206 7.665749 3.135751 31.257908 14.725076
2003-03-21 08:10:21 51°20.374 2°45.179 7.703763 3.140278 31.309426 14.792494
2003-03-21 08:10:27 51°20.372 2°45.139 8.055709 3.141542 31.322574 14.927332
2003-03-21 08:10:31 51°20.37 2°45.112 6.090193 3.143016 31.339628 15.129589
2003-03-21 08:10:37 51°20.367 2°45.072 6.118249 3.143016 31.337255 15.129589
2003-03-21 08:10:42 51°20.365 2°45.038 6.077133 3.145122 31.362862 15.02846
2003-03-21 08:10:47 51°20.362 2°45.004 6.077133 3.145122 31.362862 15.02846
2003-03-21 08:10:51 51°20.359 2°44.978 6.081869 3.14628 31.374059 14.859913
2003-03-21 08:10:57 51°20.353 2°44.938 6.083315 3.145648 31.368671 14.859913
2003-03-21 08:11:01 51°20.348 2°44.911 6.083464 3.146174 31.369731 16.410546
2003-03-21 08:11:07 51°20.341 2°44.872 6.081819 3.145964 31.372157 15.197007
2003-03-21 08:11:11 51°20.334 2°44.847 6.084012 3.149965 31.417897 14.657657
2003-03-21 08:11:17 51°20.324 2°44.81 6.084012 3.149965 31.417897 14.657657
2003-03-21 08:11:21 51°20.317 2°44.785 6.080772 3.149228 31.412141 14.623947
2003-03-21 08:11:27 51°20.304 2°44.75 6.162425 3.149965 31.420276 14.286853
2003-03-21 08:11:31 51°20.297 2°44.725 6.081321 3.149544 31.412456 14.826204
2003-03-21 08:11:37 51°20.283 2°44.69 6.083813 3.149438 31.412087 14.354272
2003-03-21 08:11:41 51°20.275 2°44.667 6.082018 3.149754 31.415573 14.185725
2003-03-21 08:11:47 51°20.261 2°44.632 6.082018 3.149754 31.415573 14.185725
2003-03-21 08:11:52 51°20.25 2°44.603 6.163221 3.149123 31.410186 14.185725
2003-03-21 08:11:57 51°20.238 2°44.574 6.079975 3.150702 31.428412 13.781212
2003-03-21 08:12:02 51°20.227 2°44.545 6.079626 3.147754 31.396663 13.747503
2003-03-21 08:12:07 51°20.215 2°44.517 6.122583 3.147859 31.397033 14.219435
2003-03-21 08:12:12 51°20.204 2°44.487 6.122484 3.147754 31.395871 14.118306
2003-03-21 08:12:17 51°20.191 2°44.459 6.122484 3.147754 31.395871 14.118306
2003-03-21 08:12:21 51°20.183 2°44.435 6.12069 3.147543 31.391962 13.983469
2003-03-21 08:12:27 51°20.169 2°44.4 6.121338 3.150175 31.422601 13.477828
2003-03-21 08:12:31 51°20.161 2°44.376 6.080523 3.149017 31.409816 13.646375
2003-03-21 08:12:37 51°20.147 2°44.341 6.124626 3.149017 31.409816 13.814922
2003-03-21 08:12:41 51°20.139 2°44.317 6.08152 3.150281 31.422177 13.511537
2003-03-21 08:12:47 51°20.125 2°44.283 6.08152 3.150281 31.422177 13.511537
2003-03-21 08:12:52 51°20.115 2°44.252 6.121786 3.146596 31.383088 13.578956
2003-03-21 08:12:57 51°20.103 2°44.223 6.080772 3.149754 31.417952 13.781212
2003-03-21 08:13:01 51°20.095 2°44.2 6.079975 3.14649 31.381926 14.050888
2003-03-21 08:13:07 51°20.083 2°44.164 6.082417 3.149965 31.421862 13.781212
2003-03-21 08:13:11 51°20.074 2°44.14 6.162923 3.149228 31.412141 14.050888
2003-03-21 08:13:17 51°20.061 2°44.104 6.162923 3.149228 31.412141 14.050888
2003-03-21 08:13:21 51°20.052 2°44.081 6.081919 3.146701 31.383458 13.511537
2003-03-21 08:13:27 51°20.04 2°44.045 6.123878 3.148701 31.407123 13.848631
2003-03-21 08:13:32 51°20.028 2°44.015 6.125821 3.148175 31.400519 13.848631
2003-03-21 08:13:37 51°20.018 2°43.985 6.124426 3.146596 31.380712 13.983469
2003-03-21 08:13:41 51°20.009 2°43.962 6.083115 3.151018 31.431899 13.949759
2003-03-21 08:13:47 51°19.997 2°43.926 6.083115 3.151018 31.431899 13.949759
2003-03-21 08:13:52 51°19.986 2°43.898 6.124974 3.149544 31.414834 13.747503
2003-03-21 08:13:57 51°19.975 2°43.868 6.083564 3.149965 31.419483 13.882341
2003-03-21 08:14:01 51°19.967 2°43.844 6.085308 3.146806 31.383036 14.050888
2003-03-21 08:14:07 51°19.954 2°43.809 6.085757 3.14986 31.419114 13.983469
2003-03-21 08:14:12 51°19.944 2°43.778 6.126818 3.15007 31.419852 13.949759
2003-03-21 08:14:17 51°19.933 2°43.748 6.126818 3.15007 31.419852 13.949759
2003-03-21 08:14:21 51°19.926 2°43.723 6.123679 3.147964 31.39661 13.848631
2003-03-21 08:14:27 51°19.912 2°43.688 6.166258 3.147859 31.394656 13.91605
2003-03-21 08:14:32 51°19.902 2°43.657 6.124028 3.147438 31.390008 13.444118
2003-03-21 08:14:37 51°19.892 2°43.627 6.086056 3.14986 31.41515 13.612665
2003-03-21 08:14:41 51°19.883 2°43.603 6.128461 3.150386 31.42096 13.309281
2003-03-21 08:14:47 51°19.87 2°43.568 6.128461 3.150386 31.42096 13.309281
2003-03-21 08:14:52 51°19.86 2°43.538 6.088648 3.147543 31.390378 13.646375
2003-03-21 08:14:57 51°19.849 2°43.509 6.089147 3.147543 31.391962 13.545247
2003-03-21 08:15:01 51°19.841 2°43.484 6.089844 3.148491 31.400836 13.646375
2003-03-21 08:15:07 51°19.827 2°43.449 6.088648 3.14986 31.416735 13.814922
2003-03-21 08:15:11 51°19.819 2°43.424 6.129956 3.147333 31.388846 13.680084
2003-03-21 08:15:17 51°19.806 2°43.388 6.129956 3.147333 31.388846 13.680084
2003-03-21 08:15:21 51°19.798 2°43.364 6.090991 3.151228 31.43105 13.91605
2003-03-21 08:15:27 51°19.786 2°43.327 6.090293 3.151018 31.428726 13.747503
2003-03-21 08:15:32 51°19.775 2°43.296 6.091838 3.151334 31.42904 13.578956
2003-03-21 08:15:37 51°19.764 2°43.266 6.091988 3.151334 31.430626 13.309281
2003-03-21 08:15:41 51°19.757 2°43.241 6.094081 3.151965 31.436012 13.3767
2003-03-21 08:15:47 51°19.744 2°43.204 6.094081 3.151965 31.436012 13.3767
2003-03-21 08:15:52 51°19.734 2°43.173 6.093234 3.152176 31.437543 13.612665
2003-03-21 08:15:57 51°19.722 2°43.143 6.091639 3.151755 31.435275 13.747503
2003-03-21 08:16:02 51°19.712 2°43.112 6.133293 3.152176 31.437543 13.3767
2003-03-21 08:16:07 51°19.702 2°43.082 6.09124 3.152386 31.439074 13.275571
2003-03-21 08:16:12 51°19.692 2°43.051 6.133243 3.152492 31.440236 13.140734
2003-03-21 08:16:17 51°19.681 2°43.021 6.133243 3.152492 31.440236 13.140734
2003-03-21 08:16:21 51°19.673 2°42.997 6.132646 3.152913 31.443298 13.241862
2003-03-21 08:16:27 51°19.66 2°42.961 6.093184 3.152913 31.444091 13.039606
2003-03-21 08:16:32 51°19.65 2°42.931 6.091838 3.153123 31.447209 13.444118
2003-03-21 08:16:37 51°19.639 2°42.901 6.090542 3.153123 31.446415 13.241862
2003-03-21 08:16:41 51°19.631 2°42.877 6.173526 3.153018 31.442873 13.174443
2003-03-21 08:16:47 51°19.618 2°42.84 6.173526 3.153018 31.442873 13.174443
2003-03-21 08:16:51 51°19.609 2°42.816 6.091689 3.152808 31.442929 13.107024
2003-03-21 08:16:57 51°19.597 2°42.78 6.092287 3.152386 31.438281 13.208153
2003-03-21 08:17:01 51°19.589 2°42.754 6.091589 3.152281 31.437912 13.140734
2003-03-21 08:17:07 51°19.576 2°42.719 6.094779 3.151965 31.433633 13.073315
2003-03-21 08:17:11 51°19.568 2°42.694 6.092735 3.152386 31.439074 12.972187
2003-03-21 08:17:17 51°19.556 2°42.659 6.092735 3.152386 31.439074 12.972187
2003-03-21 08:17:22 51°19.545 2°42.63 6.133343 3.152281 31.438705 12.904768
2003-03-21 08:17:27 51°19.535 2°42.6 6.091888 3.152071 31.437174 12.938477
2003-03-21 08:17:32 51°19.525 2°42.569 6.089246 3.151755 31.432102 12.601383
2003-03-21 08:17:37 51°19.515 2°42.538 6.088499 3.152281 31.435532 12.76993
2003-03-21 08:17:42 51°19.507 2°42.506 6.129806 3.151755 31.430516 12.635093
2003-03-21 08:17:47 51°19.499 2°42.474 6.129806 3.151755 31.430516 12.635093
2003-03-21 08:17:51 51°19.493 2°42.448 6.087601 3.152281 31.437912 12.399127
2003-03-21 08:17:57 51°19.487 2°42.408 6.126668 3.152176 31.435957 12.196871
2003-03-21 08:18:02 51°19.481 2°42.375 6.128412 3.152702 31.44256 12.297999
2003-03-21 08:18:07 51°19.476 2°42.341 6.087502 3.151439 31.428616 12.062033
2003-03-21 08:18:12 51°19.473 2°42.307 6.087601 3.150912 31.423599 12.028324
2003-03-21 08:18:17 51°19.469 2°42.273 6.087601 3.150912 31.423599 12.028324
2003-03-21 08:18:21 51°19.468 2°42.246 6.171784 3.151018 31.425554 12.062033
2003-03-21 08:18:27 51°19.466 2°42.205 6.090642 3.15186 31.435643 11.960905
2003-03-21 08:18:31 51°19.466 2°42.177 6.09428 3.151228 31.427878 11.927195
2003-03-21 08:18:37 51°19.466 2°42.137 6.136929 3.151228 31.429464 11.994614
2003-03-21 08:18:41 51°19.467 2°42.11 6.140216 3.151334 31.431419 11.893486
2003-03-21 08:18:47 51°19.47 2°42.069 6.140216 3.151334 31.431419 11.893486
2003-03-21 08:18:52 51°19.473 2°42.035 6.144001 3.151018 31.425554 11.927195
2003-03-21 08:18:57 51°19.476 2°42.002 6.107088 3.151965 31.435219 12.062033
2003-03-21 08:19:01 51°19.48 2°41.976 6.109679 3.152176 31.435164 11.893486
2003-03-21 08:19:07 51°19.485 2°41.935 6.113217 3.152492 31.437063 12.095742
2003-03-21 08:19:12 51°19.491 2°41.903 6.114363 3.153439 31.445934 11.960905
2003-03-21 08:19:17 51°19.498 2°41.87 6.114363 3.153439 31.445934 11.960905
2003-03-21 08:19:21 51°19.502 2°41.844 6.153363 3.154492 31.452 11.826067
2003-03-21 08:19:27 51°19.512 2°41.807 6.11516 3.155334 31.461295 11.960905
2003-03-21 08:19:31 51°19.517 2°41.781 6.118448 3.156387 31.471326 11.724939
2003-03-21 08:19:37 51°19.528 2°41.746 6.161081 3.157124 31.475489 11.556392
2003-03-21 08:19:41 51°19.535 2°41.722 6.122932 3.157335 31.473844 11.623811
2003-03-21 08:19:47 51°19.548 2°41.688 6.122932 3.157335 31.473844 11.623811
2003-03-21 08:19:52 51°19.559 2°41.66 6.165263 3.158809 31.489313 11.893486
2003-03-21 08:19:57 51°19.571 2°41.632 6.166209 3.158914 31.490475 11.69123
2003-03-21 08:20:01 51°19.581 2°41.61 6.169444 3.159019 31.490843 11.455264
2003-03-21 08:20:07 51°19.595 2°41.577 6.128412 3.159862 31.499342 11.590101
2003-03-21 08:20:11 51°19.605 2°41.556 6.169096 3.160809 31.505825 11.623811
2003-03-21 08:20:17 51°19.62 2°41.524 6.169096 3.160809 31.505825 11.623811
2003-03-21 08:20:21 51°19.63 2°41.502 6.130504 3.161546 31.512368 11.758648
2003-03-21 08:20:27 51°19.646 2°41.472 6.132297 3.162389 31.520866 11.927195
2003-03-21 08:20:32 51°19.658 2°41.445 6.140017 3.162599 31.5216 11.65752
2003-03-21 08:20:37 51°19.671 2°41.419 6.22796 3.163441 31.529303 11.421554
2003-03-21 08:20:42 51°19.684 2°41.392 6.148931 3.163547 31.530464 11.522683
2003-03-21 08:20:47 51°19.696 2°41.366 6.148931 3.163547 31.530464 11.522683
2003-03-21 08:20:52 51°19.709 2°41.339 6.152168 3.165021 31.544341 11.354136
2003-03-21 08:20:57 51°19.722 2°41.313 6.232088 3.165337 31.54544 11.758648
2003-03-21 08:21:02 51°19.735 2°41.286 6.156251 3.166074 31.552775 12.095742
2003-03-21 08:21:07 51°19.748 2°41.26 6.201197 3.168074 31.572457 12.432836
2003-03-21 08:21:11 51°19.758 2°41.239 6.162873 3.169864 31.588223 12.466546
2003-03-21 08:21:17 51°19.774 2°41.208 6.162873 3.169864 31.588223 12.466546
2003-03-21 08:21:22 51°19.787 2°41.182 6.203386 3.171233 31.599342 12.365418
2003-03-21 08:21:27 51°19.801 2°41.156 6.206122 3.172391 31.609728 12.264289
2003-03-21 08:21:32 51°19.814 2°41.131 6.166557 3.172707 31.610027 12.533965
2003-03-21 08:21:37 51°19.828 2°41.105 6.170888 3.174497 31.626583 12.736221
2003-03-21 08:21:41 51°19.839 2°41.085 6.210948 3.17576 31.637331 13.140734
2003-03-21 08:21:47 51°19.856 2°41.057 6.210948 3.17576 31.637331 13.140734
2003-03-21 08:21:50 51°19.865 2°41.042 6.170888 3.17734 31.653155 13.208153
2003-03-21 08:21:57 51°19.886 2°41.011 6.17263 3.178603 31.664698 13.140734
2003-03-21 08:22:02 51°19.902 2°40.989 6.173526 3.180288 31.680885 13.241862
2003-03-21 08:22:07 51°19.918 2°40.97 6.255457 3.181235 31.688145 13.578956
2003-03-21 08:22:11 51°19.931 2°40.954 6.209107 3.182499 31.701281 13.91605
2003-03-21 08:22:17 51°19.951 2°40.932 6.209107 3.182499 31.701281 13.91605
2003-03-21 08:22:21 51°19.964 2°40.918 6.162574 3.184921 31.726392 14.219435
2003-03-21 08:22:27 51°19.985 2°40.898 6.15894 3.187027 31.74802 14.387982
2003-03-21 08:22:32 51°20.002 2°40.882 6.319655 3.187869 31.754913 14.623947
2003-03-21 08:22:37 51°20.019 2°40.866 6.274892 3.188817 31.766165 14.556529
2003-03-21 08:22:42 51°20.036 2°40.849 6.253668 3.188922 31.766526 14.185725
2003-03-21 08:22:47 51°20.054 2°40.833 6.253668 3.188922 31.766526 14.185725
2003-03-21 08:22:52 51°20.071 2°40.818 6.305996 3.189027 31.771686 14.084597
2003-03-21 08:22:57 51°20.089 2°40.803 6.346765 3.188185 31.762394 14.927332
2003-03-21 08:23:02 51°20.106 2°40.787 6.26361 3.189027 31.768487 18.3994
2003-03-21 08:23:07 51°20.123 2°40.772 6.304804 3.195239 31.822601 21.2647
2003-03-21 08:23:11 51°20.137 2°40.759 6.264803 3.208612 31.94842 22.613076
2003-03-21 08:23:17 51°20.157 2°40.74 6.264803 3.208612 31.94842 22.613076
2003-03-21 08:23:21 51°20.171 2°40.727 6.263908 3.216088 32.011562 23.017589
2003-03-21 08:23:27 51°20.192 2°40.709 6.263759 3.221669 32.061819 23.219845
2003-03-21 08:23:32 51°20.21 2°40.694 6.263312 3.224301 32.083589 23.219845
2003-03-21 08:23:37 51°20.227 2°40.679 6.263809 3.226934 32.109382 23.253554
2003-03-21 08:23:41 51°20.241 2°40.666 6.262019 3.227776 32.117055 22.983879
2003-03-21 08:23:47 51°20.261 2°40.647 6.262019 3.227776 32.117055 22.983879
2003-03-21 08:23:50 51°20.271 2°40.636 6.303413 3.228829 32.127856 22.882751
2003-03-21 08:23:57 51°20.294 2°40.608 6.260478 3.228513 32.123567 22.983879
2003-03-21 08:24:01 51°20.306 2°40.592 6.254811 3.231146 32.150971 23.118717
2003-03-21 08:24:07 51°20.323 2°40.566 6.246657 3.231251 32.149711 22.882751
2003-03-21 08:24:11 51°20.334 2°40.547 6.280558 3.231567 32.154807 23.017589
2003-03-21 08:24:17 51°20.351 2°40.518 6.280558 3.231567 32.154807 23.017589
2003-03-21 08:24:22 51°20.363 2°40.492 6.233381 3.231251 32.152132 23.017589
2003-03-21 08:24:27 51°20.374 2°40.465 6.309771 3.231567 32.156422 22.882751
2003-03-21 08:24:32 51°20.386 2°40.437 6.219653 3.23062 32.148396 22.309691
2003-03-21 08:24:37 51°20.396 2°40.408 6.21637 3.229672 32.140369 21.80405
2003-03-21 08:24:41 51°20.402 2°40.383 6.214132 3.227145 32.118155 21.601794
2003-03-21 08:24:47 51°20.411 2°40.346 6.214132 3.227145 32.118155 21.601794
2003-03-21 08:24:50 51°20.415 2°40.326 6.207565 3.22546 32.101193 21.332118
2003-03-21 08:24:57 51°20.424 2°40.282 6.197863 3.22388 32.092646 20.860187
2003-03-21 08:25:01 51°20.431 2°40.256 6.19224 3.222617 32.086773 20.65793
2003-03-21 08:25:07 51°20.436 2°40.217 6.187761 3.220827 32.074284 20.219708
2003-03-21 08:25:11 51°20.437 2°40.193 6.258092 3.219984 32.069023 20.017452
2003-03-21 08:25:17 51°20.438 2°40.156 6.258092 3.219984 32.069023 20.017452
2003-03-21 08:25:21 51°20.438 2°40.131 6.292781 3.218826 32.057857 19.747777
2003-03-21 08:25:27 51°20.437 2°40.093 6.207217 3.217984 32.055011 18.905042
2003-03-21 08:25:32 51°20.438 2°40.063 6.163172 3.217141 32.050552 18.331982
2003-03-21 08:25:37 51°20.437 2°40.032 6.160184 3.216826 32.053515 17.792631
2003-03-21 08:25:42 51°20.438 2°40.002 6.197166 3.215036 32.041012 16.815059
2003-03-21 08:25:47 51°20.437 2°39.972 6.197166 3.215036 32.041012 16.815059
2003-03-21 08:25:52 51°20.437 2°39.941 6.156351 3.213983 32.035032 17.185862
2003-03-21 08:25:57 51°20.436 2°39.911 6.154956 3.213351 32.032893 16.74764
2003-03-21 08:26:01 51°20.436 2°39.887 6.196768 3.212509 32.026817 16.511674
2003-03-21 08:26:07 51°20.434 2°39.852 6.241337 3.211877 32.023065 16.511674
2003-03-21 08:26:12 51°20.434 2°39.824 6.154857 3.211456 32.021639 16.410546
2003-03-21 08:26:17 51°20.433 2°39.798 6.154857 3.211456 32.021639 16.410546
2003-03-21 08:26:21 51°20.432 2°39.778 6.195325 3.210824 32.01708 16.17458
2003-03-21 08:26:27 51°20.431 2°39.749 6.155355 3.210403 32.014041 16.275708
2003-03-21 08:26:31 51°20.431 2°39.731 6.153214 3.210719 32.019142 16.17458
2003-03-21 08:26:37 51°20.43 2°39.704 6.152019 3.210087 32.011358 16.073452
2003-03-21 08:26:41 51°20.429 2°39.687 6.152168 3.209666 32.006706 15.938614
2003-03-21 08:26:47 51°20.428 2°39.662 6.152168 3.209666 32.006706 15.938614
2003-03-21 08:26:52 51°20.427 2°39.641 6.155205 3.20935 32.004023 16.140871
2003-03-21 08:26:57 51°20.425 2°39.621 6.194579 3.209876 32.01145 15.837486
2003-03-21 08:27:01 51°20.425 2°39.606 6.196569 3.208613 31.9983 15.567811
2003-03-21 08:27:07 51°20.424 2°39.583 6.155006 3.208402 31.997586 15.500392
2003-03-21 08:27:12 51°20.423 2°39.565 6.198062 3.208613 32.00233 15.432973
2003-03-21 08:27:17 51°20.422 2°39.546 6.198062 3.208613 32.00233 15.432973
2003-03-21 08:27:21 51°20.421 2°39.532 6.156002 3.209139 32.008146 15.702648
2003-03-21 08:27:27 51°20.42 2°39.511 6.156002 3.20935 32.009666 15.264426
2003-03-21 08:27:32 51°20.419 2°39.493 6.159139 3.20935 32.008053 15.264426
2003-03-21 08:27:37 51°20.418 2°39.476 6.200848 3.209139 32.003309 15.163298
2003-03-21 08:27:42 51°20.417 2°39.458 6.163122 3.20956 32.008767 15.500392
2003-03-21 08:27:47 51°20.417 2°39.442 6.163122 3.20956 32.008767 15.500392
2003-03-21 08:27:51 51°20.416 2°39.428 6.206023 3.209666 32.00993 15.702648
2003-03-21 08:27:57 51°20.415 2°39.408 6.207665 3.209876 32.012256 15.736358
2003-03-21 08:28:01 51°20.414 2°39.395 6.209655 3.210297 32.015296 15.500392
2003-03-21 08:28:07 51°20.413 2°39.375 6.168299 3.210403 32.015653 15.331845
2003-03-21 08:28:11 51°20.412 2°39.363 6.170788 3.209981 32.011001 15.837486
2003-03-21 08:28:17 51°20.411 2°39.343 6.170788 3.209981 32.011001 15.837486
2003-03-21 08:28:21 51°20.411 2°39.331 6.255805 3.210824 32.01708 16.140871
2003-03-21 08:28:27 51°20.409 2°39.314 6.216122 3.21135 32.022895 15.904905
2003-03-21 08:28:32 51°20.409 2°39.299 6.178902 3.211245 32.018507 15.500392
2003-03-21 08:28:37 51°20.408 2°39.284 6.177857 3.21135 32.018864 15.63523
2003-03-21 08:28:41 51°20.407 2°39.273 6.180246 3.21135 32.016446 15.837486
2003-03-21 08:28:47 51°20.406 2°39.255 6.180246 3.21135 32.016446 15.837486
2003-03-21 08:28:50 51°20.406 2°39.246 6.225473 3.212614 32.028786 15.702648
2003-03-21 08:28:57 51°20.404 2°39.225 6.270419 3.21314 32.036212 16.006033
2003-03-21 08:29:01 51°20.404 2°39.213 6.190847 3.212509 32.026011 15.803777
2003-03-21 08:29:07 51°20.402 2°39.196 6.189503 3.212193 32.020911 15.534101
2003-03-21 08:29:12 51°20.401 2°39.182 6.196221 3.212614 32.022337 15.803777
2003-03-21 08:29:17 51°20.4 2°39.167 6.196221 3.212614 32.022337 15.803777
2003-03-21 08:29:21 51°20.399 2°39.156 6.239995 3.213351 32.028863 16.343127
2003-03-21 08:29:27 51°20.397 2°39.138 6.239298 3.21314 32.02412 16.006033
2003-03-21 08:29:31 51°20.397 2°39.127 6.20249 3.213772 32.028677 16.376836
2003-03-21 08:29:37 51°20.395 2°39.11 6.244271 3.213772 32.027871 16.680221
2003-03-21 08:29:42 51°20.394 2°39.096 6.206968 3.214509 32.031977 16.781349
2003-03-21 08:29:47 51°20.393 2°39.082 6.206968 3.214509 32.031977 16.781349
2003-03-21 08:29:51 51°20.391 2°39.071 6.247702 3.21493 32.033402 16.477965
2003-03-21 08:29:57 51°20.39 2°39.053 6.247105 3.215878 32.042249 16.444255
2003-03-21 08:30:01 51°20.389 2°39.042 6.248944 3.216194 32.044124 16.680221
2003-03-21 08:30:07 51°20.388 2°39.025 6.210351 3.217141 32.051358 16.71393
2003-03-21 08:30:11 51°20.387 2°39.014 6.252524 3.217352 32.052875 16.882477
2003-03-21 08:30:17 51°20.385 2°38.998 6.252524 3.217352 32.052875 16.882477
2003-03-21 08:30:21 51°20.384 2°38.987 6.210152 3.217457 32.052425 16.781349
2003-03-21 08:30:27 51°20.383 2°38.97 6.211645 3.217879 32.055461 16.916187
2003-03-21 08:30:32 51°20.382 2°38.956 6.290992 3.217879 32.054655 17.219571
2003-03-21 08:30:37 51°20.381 2°38.942 6.251878 3.21851 32.060014 17.185862
2003-03-21 08:30:42 51°20.381 2°38.928 6.210451 3.219037 32.065016 17.388118
2003-03-21 08:30:47 51°20.38 2°38.913 6.210451 3.219037 32.065016 17.388118
2003-03-21 08:30:51 51°20.379 2°38.902 6.209754 3.218826 32.062693 17.354409
2003-03-21 08:30:57 51°20.378 2°38.885 6.210451 3.219353 32.066083 17.28699
2003-03-21 08:31:01 51°20.377 2°38.874 6.208112 3.219353 32.067696 17.253281
2003-03-21 08:31:07 51°20.376 2°38.857 6.249094 3.219879 32.073505 17.185862
2003-03-21 08:31:11 51°20.376 2°38.846 6.250486 3.219353 32.067696 17.084734
2003-03-21 08:31:17 51°20.374 2°38.829 6.250486 3.219353 32.067696 17.084734
2003-03-21 08:31:21 51°20.373 2°38.819 6.210799 3.219563 32.070019 17.051024
2003-03-21 08:31:27 51°20.372 2°38.802 6.293626 3.219669 32.071987 17.118443
2003-03-21 08:31:32 51°20.371 2°38.787 6.212441 3.219247 32.06734 17.152153
2003-03-21 08:31:37 51°20.37 2°38.773 6.254115 3.219774 32.073149 17.28699
2003-03-21 08:31:42 51°20.369 2°38.759 6.21443 3.219774 32.073149 17.489247
2003-03-21 08:31:47 51°20.368 2°38.745 6.21443 3.219774 32.073149 17.489247
2003-03-21 08:31:52 51°20.367 2°38.731 6.21443 3.22009 32.076635 17.28699
2003-03-21 08:31:57 51°20.367 2°38.717 6.215276 3.22009 32.075022 17.219571
2003-03-21 08:32:01 51°20.366 2°38.706 6.217166 3.220722 32.081993 17.28699
2003-03-21 08:32:07 51°20.366 2°38.69 6.219106 3.220722 32.081186 17.556665
2003-03-21 08:32:11 51°20.365 2°38.678 6.219106 3.220511 32.07725 17.624084
2003-03-21 08:32:17 51°20.364 2°38.662 6.219106 3.220511 32.07725 17.624084
2003-03-21 08:32:21 51°20.364 2°38.651 6.263411 3.220932 32.082703 17.556665
2003-03-21 08:32:27 51°20.363 2°38.634 6.221643 3.221669 32.090029 17.657794
2003-03-21 08:32:31 51°20.363 2°38.622 6.222091 3.221459 32.086899 17.556665
2003-03-21 08:32:37 51°20.362 2°38.606 6.264604 3.222196 32.092611 17.624084
2003-03-21 08:32:41 51°20.361 2°38.595 6.26699 3.221564 32.084835 17.893759
2003-03-21 08:32:47 51°20.36 2°38.578 6.26699 3.221564 32.084835 17.893759
2003-03-21 08:32:51 51°20.359 2°38.566 6.269873 3.222406 32.094128 17.826341
2003-03-21 08:32:57 51°20.358 2°38.549 6.229601 3.222406 32.091708 17.388118
2003-03-21 08:33:02 51°20.358 2°38.535 6.312304 3.223354 32.102163 17.691503
2003-03-21 08:33:07 51°20.357 2°38.522 6.229452 3.223775 32.104389 17.994888
2003-03-21 08:33:11 51°20.356 2°38.511 6.231938 3.223459 32.100904 18.028597
2003-03-21 08:33:17 51°20.355 2°38.494 6.231938 3.223459 32.100904 18.028597
2003-03-21 08:33:21 51°20.355 2°38.482 6.231342 3.224512 32.110906 18.331982
2003-03-21 08:33:26 51°20.354 2°38.468 6.232038 3.224828 32.11197 18.365691